<?xml version="1.0" encoding="UTF-8" standalone="no" ?>
<gpx xmlns="http://www.topografix.com/GPX/1/1" xmlns:xsi="http://www.w3.org/2001/XMLSchema-instance" xsi:schemaLocation="http://www.topografix.com/GPX/1/1 http://www.topografix.com/GPX/1/1/gpx.xsd" version="1.1" creator="VisuGPX - https://www.visugpx.com">
  <metadata>
    <name>asnelles_arromanches_10,4</name>
  </metadata>
  <trk>
    <name><![CDATA[asnelles_arromanches_10,4]]></name>
    <extensions>
      <line xmlns="http://www.topografix.com/GPX/gpx_style/0/2">
        <width>4</width>
      </line>
    </extensions>
    <trkseg>
      <trkpt lat="49.34111" lon="-0.58958">
        <ele>0.8</ele>
        <time>2016-05-28T12:12:45.000Z</time>
      </trkpt>
      <trkpt lat="49.34111" lon="-0.58958">
        <ele>0.8</ele>
        <time>2016-05-28T12:12:46.000Z</time>
      </trkpt>
      <trkpt lat="49.34118" lon="-0.58949">
        <ele>1.2</ele>
        <time>2016-05-28T12:13:42.000Z</time>
      </trkpt>
      <trkpt lat="49.34127" lon="-0.58944">
        <ele>1.1</ele>
        <time>2016-05-28T12:13:54.000Z</time>
      </trkpt>
      <trkpt lat="49.34134" lon="-0.58934">
        <ele>1.1</ele>
        <time>2016-05-28T12:14:03.000Z</time>
      </trkpt>
      <trkpt lat="49.3414" lon="-0.58924">
        <ele>1.1</ele>
        <time>2016-05-28T12:14:12.000Z</time>
      </trkpt>
      <trkpt lat="49.34144" lon="-0.5891">
        <ele>1.2</ele>
        <time>2016-05-28T12:14:22.000Z</time>
      </trkpt>
      <trkpt lat="49.34149" lon="-0.58897">
        <ele>1.1</ele>
        <time>2016-05-28T12:14:31.000Z</time>
      </trkpt>
      <trkpt lat="49.3415" lon="-0.58882">
        <ele>1</ele>
        <time>2016-05-28T12:14:40.000Z</time>
      </trkpt>
      <trkpt lat="49.34154" lon="-0.58869">
        <ele>0.8</ele>
        <time>2016-05-28T12:14:50.000Z</time>
      </trkpt>
      <trkpt lat="49.34158" lon="-0.58855">
        <ele>0.8</ele>
        <time>2016-05-28T12:15:00.000Z</time>
      </trkpt>
      <trkpt lat="49.34161" lon="-0.58841">
        <ele>0.8</ele>
        <time>2016-05-28T12:15:10.000Z</time>
      </trkpt>
      <trkpt lat="49.34164" lon="-0.58827">
        <ele>0.8</ele>
        <time>2016-05-28T12:15:19.000Z</time>
      </trkpt>
      <trkpt lat="49.34167" lon="-0.58813">
        <ele>0.7</ele>
        <time>2016-05-28T12:15:28.000Z</time>
      </trkpt>
      <trkpt lat="49.34171" lon="-0.58799">
        <ele>0.8</ele>
        <time>2016-05-28T12:15:37.000Z</time>
      </trkpt>
      <trkpt lat="49.34173" lon="-0.58784">
        <ele>1.5</ele>
        <time>2016-05-28T12:15:46.000Z</time>
      </trkpt>
      <trkpt lat="49.34176" lon="-0.58769">
        <ele>1.5</ele>
        <time>2016-05-28T12:15:54.000Z</time>
      </trkpt>
      <trkpt lat="49.34178" lon="-0.58754">
        <ele>1.2</ele>
        <time>2016-05-28T12:16:03.000Z</time>
      </trkpt>
      <trkpt lat="49.34181" lon="-0.58741">
        <ele>1</ele>
        <time>2016-05-28T12:16:11.000Z</time>
      </trkpt>
      <trkpt lat="49.34185" lon="-0.58728">
        <ele>1</ele>
        <time>2016-05-28T12:16:19.000Z</time>
      </trkpt>
      <trkpt lat="49.34188" lon="-0.58715">
        <ele>1</ele>
        <time>2016-05-28T12:16:26.000Z</time>
      </trkpt>
      <trkpt lat="49.3419" lon="-0.587">
        <ele>1.1</ele>
        <time>2016-05-28T12:16:34.000Z</time>
      </trkpt>
      <trkpt lat="49.34193" lon="-0.58685">
        <ele>1.3</ele>
        <time>2016-05-28T12:16:42.000Z</time>
      </trkpt>
      <trkpt lat="49.34195" lon="-0.58671">
        <ele>1.6</ele>
        <time>2016-05-28T12:16:50.000Z</time>
      </trkpt>
      <trkpt lat="49.34197" lon="-0.58657">
        <ele>1.6</ele>
        <time>2016-05-28T12:16:58.000Z</time>
      </trkpt>
      <trkpt lat="49.34199" lon="-0.58643">
        <ele>1.3</ele>
        <time>2016-05-28T12:17:05.000Z</time>
      </trkpt>
      <trkpt lat="49.34201" lon="-0.58629">
        <ele>1.2</ele>
        <time>2016-05-28T12:17:13.000Z</time>
      </trkpt>
      <trkpt lat="49.34204" lon="-0.58615">
        <ele>1.1</ele>
        <time>2016-05-28T12:17:21.000Z</time>
      </trkpt>
      <trkpt lat="49.34206" lon="-0.586">
        <ele>1.1</ele>
        <time>2016-05-28T12:17:30.000Z</time>
      </trkpt>
      <trkpt lat="49.34208" lon="-0.58586">
        <ele>1.1</ele>
        <time>2016-05-28T12:17:39.000Z</time>
      </trkpt>
      <trkpt lat="49.34211" lon="-0.58571">
        <ele>1.1</ele>
        <time>2016-05-28T12:17:47.000Z</time>
      </trkpt>
      <trkpt lat="49.34213" lon="-0.58556">
        <ele>1.2</ele>
        <time>2016-05-28T12:17:55.000Z</time>
      </trkpt>
      <trkpt lat="49.34216" lon="-0.58541">
        <ele>1.2</ele>
        <time>2016-05-28T12:18:03.000Z</time>
      </trkpt>
      <trkpt lat="49.34215" lon="-0.58526">
        <ele>1.2</ele>
        <time>2016-05-28T12:18:12.000Z</time>
      </trkpt>
      <trkpt lat="49.34214" lon="-0.58512">
        <ele>1.3</ele>
        <time>2016-05-28T12:18:20.000Z</time>
      </trkpt>
      <trkpt lat="49.3421" lon="-0.58499">
        <ele>1.3</ele>
        <time>2016-05-28T12:18:29.000Z</time>
      </trkpt>
      <trkpt lat="49.34205" lon="-0.58488">
        <ele>1.4</ele>
        <time>2016-05-28T12:18:37.000Z</time>
      </trkpt>
      <trkpt lat="49.34198" lon="-0.58476">
        <ele>1.4</ele>
        <time>2016-05-28T12:18:46.000Z</time>
      </trkpt>
      <trkpt lat="49.34192" lon="-0.58464">
        <ele>1.4</ele>
        <time>2016-05-28T12:18:55.000Z</time>
      </trkpt>
      <trkpt lat="49.34187" lon="-0.58452">
        <ele>1.5</ele>
        <time>2016-05-28T12:19:04.000Z</time>
      </trkpt>
      <trkpt lat="49.34188" lon="-0.58438">
        <ele>1.7</ele>
        <time>2016-05-28T12:19:13.000Z</time>
      </trkpt>
      <trkpt lat="49.34192" lon="-0.58425">
        <ele>1.8</ele>
        <time>2016-05-28T12:19:22.000Z</time>
      </trkpt>
      <trkpt lat="49.34194" lon="-0.58412">
        <ele>1.7</ele>
        <time>2016-05-28T12:19:31.000Z</time>
      </trkpt>
      <trkpt lat="49.34195" lon="-0.58397">
        <ele>1.5</ele>
        <time>2016-05-28T12:19:40.000Z</time>
      </trkpt>
      <trkpt lat="49.34194" lon="-0.58383">
        <ele>1.4</ele>
        <time>2016-05-28T12:19:48.000Z</time>
      </trkpt>
      <trkpt lat="49.34192" lon="-0.58368">
        <ele>0.9</ele>
        <time>2016-05-28T12:19:57.000Z</time>
      </trkpt>
      <trkpt lat="49.3419" lon="-0.58354">
        <ele>0.6</ele>
        <time>2016-05-28T12:20:05.000Z</time>
      </trkpt>
      <trkpt lat="49.34189" lon="-0.5834">
        <ele>0.4</ele>
        <time>2016-05-28T12:20:14.000Z</time>
      </trkpt>
      <trkpt lat="49.34182" lon="-0.58331">
        <ele>0.5</ele>
        <time>2016-05-28T12:20:23.000Z</time>
      </trkpt>
      <trkpt lat="49.34172" lon="-0.58328">
        <ele>0.7</ele>
        <time>2016-05-28T12:20:32.000Z</time>
      </trkpt>
      <trkpt lat="49.34163" lon="-0.58325">
        <ele>0.5</ele>
        <time>2016-05-28T12:20:41.000Z</time>
      </trkpt>
      <trkpt lat="49.34154" lon="-0.58323">
        <ele>0.2</ele>
        <time>2016-05-28T12:20:50.000Z</time>
      </trkpt>
      <trkpt lat="49.34146" lon="-0.58318">
        <ele>4.3</ele>
        <time>2016-05-28T12:20:59.000Z</time>
      </trkpt>
      <trkpt lat="49.34137" lon="-0.58313">
        <ele>-0.1</ele>
        <time>2016-05-28T12:21:08.000Z</time>
      </trkpt>
      <trkpt lat="49.34128" lon="-0.5831">
        <ele>-0.1</ele>
        <time>2016-05-28T12:21:18.000Z</time>
      </trkpt>
      <trkpt lat="49.34118" lon="-0.5831">
        <ele>-0.1</ele>
        <time>2016-05-28T12:21:27.000Z</time>
      </trkpt>
      <trkpt lat="49.34109" lon="-0.5831">
        <ele>-0.2</ele>
        <time>2016-05-28T12:21:35.000Z</time>
      </trkpt>
      <trkpt lat="49.341" lon="-0.58308">
        <ele>-0.1</ele>
        <time>2016-05-28T12:21:43.000Z</time>
      </trkpt>
      <trkpt lat="49.3409" lon="-0.58305">
        <ele>0.2</ele>
        <time>2016-05-28T12:21:53.000Z</time>
      </trkpt>
      <trkpt lat="49.34081" lon="-0.58304">
        <ele>0.1</ele>
        <time>2016-05-28T12:22:02.000Z</time>
      </trkpt>
      <trkpt lat="49.34071" lon="-0.58302">
        <ele>3.9</ele>
        <time>2016-05-28T12:22:11.000Z</time>
      </trkpt>
      <trkpt lat="49.34062" lon="-0.58301">
        <ele>0.3</ele>
        <time>2016-05-28T12:22:20.000Z</time>
      </trkpt>
      <trkpt lat="49.34053" lon="-0.58299">
        <ele>4</ele>
        <time>2016-05-28T12:22:29.000Z</time>
      </trkpt>
      <trkpt lat="49.34043" lon="-0.58296">
        <ele>4</ele>
        <time>2016-05-28T12:22:39.000Z</time>
      </trkpt>
      <trkpt lat="49.34033" lon="-0.58295">
        <ele>4</ele>
        <time>2016-05-28T12:22:47.000Z</time>
      </trkpt>
      <trkpt lat="49.34023" lon="-0.58294">
        <ele>0.2</ele>
        <time>2016-05-28T12:22:55.000Z</time>
      </trkpt>
      <trkpt lat="49.34014" lon="-0.58293">
        <ele>0.5</ele>
        <time>2016-05-28T12:23:04.000Z</time>
      </trkpt>
      <trkpt lat="49.34004" lon="-0.5829">
        <ele>0.5</ele>
        <time>2016-05-28T12:23:13.000Z</time>
      </trkpt>
      <trkpt lat="49.33995" lon="-0.58288">
        <ele>0.4</ele>
        <time>2016-05-28T12:23:21.000Z</time>
      </trkpt>
      <trkpt lat="49.33986" lon="-0.58286">
        <ele>0.4</ele>
        <time>2016-05-28T12:23:29.000Z</time>
      </trkpt>
      <trkpt lat="49.33977" lon="-0.58284">
        <ele>0.1</ele>
        <time>2016-05-28T12:23:37.000Z</time>
      </trkpt>
      <trkpt lat="49.33968" lon="-0.58284">
        <ele>-0.1</ele>
        <time>2016-05-28T12:23:45.000Z</time>
      </trkpt>
      <trkpt lat="49.33958" lon="-0.58281">
        <ele>-0.2</ele>
        <time>2016-05-28T12:23:54.000Z</time>
      </trkpt>
      <trkpt lat="49.33949" lon="-0.58279">
        <ele>0.7</ele>
        <time>2016-05-28T12:24:33.000Z</time>
      </trkpt>
      <trkpt lat="49.3394" lon="-0.58282">
        <ele>0.8</ele>
        <time>2016-05-28T12:25:10.000Z</time>
      </trkpt>
      <trkpt lat="49.33931" lon="-0.58278">
        <ele>0.5</ele>
        <time>2016-05-28T12:25:19.000Z</time>
      </trkpt>
      <trkpt lat="49.33921" lon="-0.58276">
        <ele>0.5</ele>
        <time>2016-05-28T12:25:28.000Z</time>
      </trkpt>
      <trkpt lat="49.33912" lon="-0.58274">
        <ele>0.5</ele>
        <time>2016-05-28T12:25:36.000Z</time>
      </trkpt>
      <trkpt lat="49.33903" lon="-0.58273">
        <ele>0.4</ele>
        <time>2016-05-28T12:25:45.000Z</time>
      </trkpt>
      <trkpt lat="49.33894" lon="-0.58271">
        <ele>0.3</ele>
        <time>2016-05-28T12:25:53.000Z</time>
      </trkpt>
      <trkpt lat="49.33884" lon="-0.58271">
        <ele>0.1</ele>
        <time>2016-05-28T12:26:01.000Z</time>
      </trkpt>
      <trkpt lat="49.33875" lon="-0.58269">
        <ele>0.1</ele>
        <time>2016-05-28T12:26:09.000Z</time>
      </trkpt>
      <trkpt lat="49.33865" lon="-0.58267">
        <ele>0.1</ele>
        <time>2016-05-28T12:26:18.000Z</time>
      </trkpt>
      <trkpt lat="49.33855" lon="-0.58266">
        <ele>0.1</ele>
        <time>2016-05-28T12:26:27.000Z</time>
      </trkpt>
      <trkpt lat="49.33845" lon="-0.58266">
        <ele>0.2</ele>
        <time>2016-05-28T12:26:37.000Z</time>
      </trkpt>
      <trkpt lat="49.33836" lon="-0.58265">
        <ele>0.6</ele>
        <time>2016-05-28T12:26:48.000Z</time>
      </trkpt>
      <trkpt lat="49.33827" lon="-0.58264">
        <ele>0.8</ele>
        <time>2016-05-28T12:26:57.000Z</time>
      </trkpt>
      <trkpt lat="49.33817" lon="-0.58264">
        <ele>1.2</ele>
        <time>2016-05-28T12:27:05.000Z</time>
      </trkpt>
      <trkpt lat="49.33808" lon="-0.58262">
        <ele>1.3</ele>
        <time>2016-05-28T12:27:11.000Z</time>
      </trkpt>
      <trkpt lat="49.33799" lon="-0.58261">
        <ele>1.1</ele>
        <time>2016-05-28T12:27:17.000Z</time>
      </trkpt>
      <trkpt lat="49.3379" lon="-0.58258">
        <ele>1.1</ele>
        <time>2016-05-28T12:27:24.000Z</time>
      </trkpt>
      <trkpt lat="49.3378" lon="-0.5826">
        <ele>1.1</ele>
        <time>2016-05-28T12:27:31.000Z</time>
      </trkpt>
      <trkpt lat="49.3377" lon="-0.58259">
        <ele>1.3</ele>
        <time>2016-05-28T12:27:39.000Z</time>
      </trkpt>
      <trkpt lat="49.33761" lon="-0.58256">
        <ele>1.6</ele>
        <time>2016-05-28T12:27:47.000Z</time>
      </trkpt>
      <trkpt lat="49.33752" lon="-0.58253">
        <ele>1.8</ele>
        <time>2016-05-28T12:27:54.000Z</time>
      </trkpt>
      <trkpt lat="49.33742" lon="-0.58248">
        <ele>1.9</ele>
        <time>2016-05-28T12:28:02.000Z</time>
      </trkpt>
      <trkpt lat="49.33734" lon="-0.58243">
        <ele>2.4</ele>
        <time>2016-05-28T12:28:15.000Z</time>
      </trkpt>
      <trkpt lat="49.33735" lon="-0.58227">
        <ele>2.6</ele>
        <time>2016-05-28T12:28:25.000Z</time>
      </trkpt>
      <trkpt lat="49.33737" lon="-0.58212">
        <ele>3</ele>
        <time>2016-05-28T12:28:33.000Z</time>
      </trkpt>
      <trkpt lat="49.33739" lon="-0.58198">
        <ele>3.5</ele>
        <time>2016-05-28T12:28:42.000Z</time>
      </trkpt>
      <trkpt lat="49.33742" lon="-0.58185">
        <ele>3.9</ele>
        <time>2016-05-28T12:28:50.000Z</time>
      </trkpt>
      <trkpt lat="49.33745" lon="-0.58171">
        <ele>4</ele>
        <time>2016-05-28T12:28:58.000Z</time>
      </trkpt>
      <trkpt lat="49.33748" lon="-0.58157">
        <ele>4.3</ele>
        <time>2016-05-28T12:29:06.000Z</time>
      </trkpt>
      <trkpt lat="49.3375" lon="-0.58142">
        <ele>5.1</ele>
        <time>2016-05-28T12:29:16.000Z</time>
      </trkpt>
      <trkpt lat="49.33751" lon="-0.58127">
        <ele>5.4</ele>
        <time>2016-05-28T12:29:26.000Z</time>
      </trkpt>
      <trkpt lat="49.33751" lon="-0.58113">
        <ele>5.5</ele>
        <time>2016-05-28T12:29:34.000Z</time>
      </trkpt>
      <trkpt lat="49.33749" lon="-0.58099">
        <ele>5.6</ele>
        <time>2016-05-28T12:29:42.000Z</time>
      </trkpt>
      <trkpt lat="49.3375" lon="-0.58083">
        <ele>5.6</ele>
        <time>2016-05-28T12:29:50.000Z</time>
      </trkpt>
      <trkpt lat="49.3375" lon="-0.58068">
        <ele>5.8</ele>
        <time>2016-05-28T12:29:59.000Z</time>
      </trkpt>
      <trkpt lat="49.3375" lon="-0.58054">
        <ele>6</ele>
        <time>2016-05-28T12:30:06.000Z</time>
      </trkpt>
      <trkpt lat="49.33751" lon="-0.58039">
        <ele>6.2</ele>
        <time>2016-05-28T12:30:15.000Z</time>
      </trkpt>
      <trkpt lat="49.3375" lon="-0.58024">
        <ele>6.3</ele>
        <time>2016-05-28T12:30:23.000Z</time>
      </trkpt>
      <trkpt lat="49.33747" lon="-0.58009">
        <ele>6.4</ele>
        <time>2016-05-28T12:30:31.000Z</time>
      </trkpt>
      <trkpt lat="49.33742" lon="-0.57997">
        <ele>6.7</ele>
        <time>2016-05-28T12:30:39.000Z</time>
      </trkpt>
      <trkpt lat="49.33733" lon="-0.57989">
        <ele>6.9</ele>
        <time>2016-05-28T12:30:49.000Z</time>
      </trkpt>
      <trkpt lat="49.33723" lon="-0.5799">
        <ele>7.1</ele>
        <time>2016-05-28T12:30:56.000Z</time>
      </trkpt>
      <trkpt lat="49.33714" lon="-0.57989">
        <ele>7.3</ele>
        <time>2016-05-28T12:31:04.000Z</time>
      </trkpt>
      <trkpt lat="49.3371" lon="-0.57976">
        <ele>7.6</ele>
        <time>2016-05-28T12:31:15.000Z</time>
      </trkpt>
      <trkpt lat="49.33708" lon="-0.57961">
        <ele>7.8</ele>
        <time>2016-05-28T12:31:24.000Z</time>
      </trkpt>
      <trkpt lat="49.33706" lon="-0.57946">
        <ele>8.2</ele>
        <time>2016-05-28T12:31:34.000Z</time>
      </trkpt>
      <trkpt lat="49.33705" lon="-0.57932">
        <ele>8.9</ele>
        <time>2016-05-28T12:31:45.000Z</time>
      </trkpt>
      <trkpt lat="49.33705" lon="-0.57918">
        <ele>9.3</ele>
        <time>2016-05-28T12:31:55.000Z</time>
      </trkpt>
      <trkpt lat="49.33703" lon="-0.57904">
        <ele>9.4</ele>
        <time>2016-05-28T12:32:05.000Z</time>
      </trkpt>
      <trkpt lat="49.33698" lon="-0.57892">
        <ele>10</ele>
        <time>2016-05-28T12:32:16.000Z</time>
      </trkpt>
      <trkpt lat="49.33688" lon="-0.57896">
        <ele>10.6</ele>
        <time>2016-05-28T12:33:08.000Z</time>
      </trkpt>
      <trkpt lat="49.33681" lon="-0.57907">
        <ele>10.3</ele>
        <time>2016-05-28T12:33:18.000Z</time>
      </trkpt>
      <trkpt lat="49.33674" lon="-0.57916">
        <ele>10.5</ele>
        <time>2016-05-28T12:33:28.000Z</time>
      </trkpt>
      <trkpt lat="49.33668" lon="-0.57927">
        <ele>10.6</ele>
        <time>2016-05-28T12:33:37.000Z</time>
      </trkpt>
      <trkpt lat="49.3366" lon="-0.57937">
        <ele>10.8</ele>
        <time>2016-05-28T12:33:46.000Z</time>
      </trkpt>
      <trkpt lat="49.33654" lon="-0.5795">
        <ele>11</ele>
        <time>2016-05-28T12:33:56.000Z</time>
      </trkpt>
      <trkpt lat="49.33648" lon="-0.5796">
        <ele>11</ele>
        <time>2016-05-28T12:34:04.000Z</time>
      </trkpt>
      <trkpt lat="49.33641" lon="-0.57969">
        <ele>10.9</ele>
        <time>2016-05-28T12:34:11.000Z</time>
      </trkpt>
      <trkpt lat="49.33635" lon="-0.57981">
        <ele>11.2</ele>
        <time>2016-05-28T12:34:19.000Z</time>
      </trkpt>
      <trkpt lat="49.33629" lon="-0.57992">
        <ele>11.6</ele>
        <time>2016-05-28T12:34:28.000Z</time>
      </trkpt>
      <trkpt lat="49.33623" lon="-0.58003">
        <ele>11.8</ele>
        <time>2016-05-28T12:34:36.000Z</time>
      </trkpt>
      <trkpt lat="49.33618" lon="-0.58016">
        <ele>11.9</ele>
        <time>2016-05-28T12:34:44.000Z</time>
      </trkpt>
      <trkpt lat="49.33612" lon="-0.58028">
        <ele>11.7</ele>
        <time>2016-05-28T12:34:54.000Z</time>
      </trkpt>
      <trkpt lat="49.33606" lon="-0.58039">
        <ele>11.6</ele>
        <time>2016-05-28T12:35:03.000Z</time>
      </trkpt>
      <trkpt lat="49.33599" lon="-0.58048">
        <ele>11.6</ele>
        <time>2016-05-28T12:35:11.000Z</time>
      </trkpt>
      <trkpt lat="49.33592" lon="-0.58059">
        <ele>11.8</ele>
        <time>2016-05-28T12:35:19.000Z</time>
      </trkpt>
      <trkpt lat="49.33585" lon="-0.5807">
        <ele>11.9</ele>
        <time>2016-05-28T12:35:27.000Z</time>
      </trkpt>
      <trkpt lat="49.33578" lon="-0.5808">
        <ele>11.9</ele>
        <time>2016-05-28T12:35:35.000Z</time>
      </trkpt>
      <trkpt lat="49.33571" lon="-0.58089">
        <ele>11.3</ele>
        <time>2016-05-28T12:36:33.000Z</time>
      </trkpt>
      <trkpt lat="49.33565" lon="-0.58102">
        <ele>11.3</ele>
        <time>2016-05-28T12:36:41.000Z</time>
      </trkpt>
      <trkpt lat="49.33558" lon="-0.58114">
        <ele>11.5</ele>
        <time>2016-05-28T12:36:50.000Z</time>
      </trkpt>
      <trkpt lat="49.33551" lon="-0.58124">
        <ele>11.6</ele>
        <time>2016-05-28T12:36:57.000Z</time>
      </trkpt>
      <trkpt lat="49.33544" lon="-0.58135">
        <ele>11.7</ele>
        <time>2016-05-28T12:37:04.000Z</time>
      </trkpt>
      <trkpt lat="49.33543" lon="-0.58149">
        <ele>11.8</ele>
        <time>2016-05-28T12:37:11.000Z</time>
      </trkpt>
      <trkpt lat="49.33546" lon="-0.58163">
        <ele>11.3</ele>
        <time>2016-05-28T12:37:19.000Z</time>
      </trkpt>
      <trkpt lat="49.3354" lon="-0.58174">
        <ele>10.2</ele>
        <time>2016-05-28T12:37:34.000Z</time>
      </trkpt>
      <trkpt lat="49.33531" lon="-0.58173">
        <ele>10</ele>
        <time>2016-05-28T12:37:46.000Z</time>
      </trkpt>
      <trkpt lat="49.33522" lon="-0.58173">
        <ele>10.1</ele>
        <time>2016-05-28T12:37:55.000Z</time>
      </trkpt>
      <trkpt lat="49.33512" lon="-0.58175">
        <ele>10.7</ele>
        <time>2016-05-28T12:38:05.000Z</time>
      </trkpt>
      <trkpt lat="49.33502" lon="-0.58177">
        <ele>11</ele>
        <time>2016-05-28T12:38:13.000Z</time>
      </trkpt>
      <trkpt lat="49.33493" lon="-0.58179">
        <ele>11.2</ele>
        <time>2016-05-28T12:38:20.000Z</time>
      </trkpt>
      <trkpt lat="49.33484" lon="-0.58181">
        <ele>11.2</ele>
        <time>2016-05-28T12:38:28.000Z</time>
      </trkpt>
      <trkpt lat="49.33474" lon="-0.58181">
        <ele>11.2</ele>
        <time>2016-05-28T12:38:36.000Z</time>
      </trkpt>
      <trkpt lat="49.33465" lon="-0.58183">
        <ele>11.2</ele>
        <time>2016-05-28T12:38:45.000Z</time>
      </trkpt>
      <trkpt lat="49.33455" lon="-0.58185">
        <ele>11.8</ele>
        <time>2016-05-28T12:38:55.000Z</time>
      </trkpt>
      <trkpt lat="49.33446" lon="-0.58187">
        <ele>12.3</ele>
        <time>2016-05-28T12:39:04.000Z</time>
      </trkpt>
      <trkpt lat="49.33437" lon="-0.58188">
        <ele>12</ele>
        <time>2016-05-28T12:39:12.000Z</time>
      </trkpt>
      <trkpt lat="49.33427" lon="-0.58188">
        <ele>12.2</ele>
        <time>2016-05-28T12:39:20.000Z</time>
      </trkpt>
      <trkpt lat="49.33418" lon="-0.5819">
        <ele>12.3</ele>
        <time>2016-05-28T12:39:27.000Z</time>
      </trkpt>
      <trkpt lat="49.33408" lon="-0.58191">
        <ele>12.4</ele>
        <time>2016-05-28T12:39:35.000Z</time>
      </trkpt>
      <trkpt lat="49.33399" lon="-0.58191">
        <ele>12.2</ele>
        <time>2016-05-28T12:39:42.000Z</time>
      </trkpt>
      <trkpt lat="49.33389" lon="-0.58193">
        <ele>12</ele>
        <time>2016-05-28T12:39:50.000Z</time>
      </trkpt>
      <trkpt lat="49.3338" lon="-0.58195">
        <ele>12.3</ele>
        <time>2016-05-28T12:39:58.000Z</time>
      </trkpt>
      <trkpt lat="49.33371" lon="-0.58196">
        <ele>12.4</ele>
        <time>2016-05-28T12:40:05.000Z</time>
      </trkpt>
      <trkpt lat="49.33362" lon="-0.58196">
        <ele>12.5</ele>
        <time>2016-05-28T12:40:12.000Z</time>
      </trkpt>
      <trkpt lat="49.33352" lon="-0.58199">
        <ele>12.8</ele>
        <time>2016-05-28T12:40:20.000Z</time>
      </trkpt>
      <trkpt lat="49.33343" lon="-0.58203">
        <ele>12.5</ele>
        <time>2016-05-28T12:40:28.000Z</time>
      </trkpt>
      <trkpt lat="49.33334" lon="-0.58205">
        <ele>12.7</ele>
        <time>2016-05-28T12:40:36.000Z</time>
      </trkpt>
      <trkpt lat="49.33324" lon="-0.58206">
        <ele>12.8</ele>
        <time>2016-05-28T12:40:43.000Z</time>
      </trkpt>
      <trkpt lat="49.33315" lon="-0.58208">
        <ele>12.9</ele>
        <time>2016-05-28T12:40:50.000Z</time>
      </trkpt>
      <trkpt lat="49.33306" lon="-0.58209">
        <ele>13</ele>
        <time>2016-05-28T12:40:58.000Z</time>
      </trkpt>
      <trkpt lat="49.33297" lon="-0.58212">
        <ele>13.1</ele>
        <time>2016-05-28T12:41:06.000Z</time>
      </trkpt>
      <trkpt lat="49.33287" lon="-0.58214">
        <ele>13.1</ele>
        <time>2016-05-28T12:41:14.000Z</time>
      </trkpt>
      <trkpt lat="49.33278" lon="-0.58216">
        <ele>13.1</ele>
        <time>2016-05-28T12:41:22.000Z</time>
      </trkpt>
      <trkpt lat="49.33269" lon="-0.58219">
        <ele>13.2</ele>
        <time>2016-05-28T12:41:29.000Z</time>
      </trkpt>
      <trkpt lat="49.33259" lon="-0.58221">
        <ele>13.4</ele>
        <time>2016-05-28T12:41:38.000Z</time>
      </trkpt>
      <trkpt lat="49.3325" lon="-0.58224">
        <ele>13.5</ele>
        <time>2016-05-28T12:41:46.000Z</time>
      </trkpt>
      <trkpt lat="49.3324" lon="-0.58226">
        <ele>13.4</ele>
        <time>2016-05-28T12:41:54.000Z</time>
      </trkpt>
      <trkpt lat="49.33231" lon="-0.5823">
        <ele>13.2</ele>
        <time>2016-05-28T12:42:02.000Z</time>
      </trkpt>
      <trkpt lat="49.33222" lon="-0.58232">
        <ele>13.1</ele>
        <time>2016-05-28T12:42:10.000Z</time>
      </trkpt>
      <trkpt lat="49.33212" lon="-0.58234">
        <ele>13.1</ele>
        <time>2016-05-28T12:42:18.000Z</time>
      </trkpt>
      <trkpt lat="49.33204" lon="-0.58237">
        <ele>13.1</ele>
        <time>2016-05-28T12:42:25.000Z</time>
      </trkpt>
      <trkpt lat="49.33194" lon="-0.58238">
        <ele>13.2</ele>
        <time>2016-05-28T12:42:33.000Z</time>
      </trkpt>
      <trkpt lat="49.33185" lon="-0.5824">
        <ele>13.2</ele>
        <time>2016-05-28T12:42:42.000Z</time>
      </trkpt>
      <trkpt lat="49.33175" lon="-0.58242">
        <ele>13.5</ele>
        <time>2016-05-28T12:42:55.000Z</time>
      </trkpt>
      <trkpt lat="49.33171" lon="-0.58254">
        <ele>13.9</ele>
        <time>2016-05-28T12:43:53.000Z</time>
      </trkpt>
      <trkpt lat="49.33173" lon="-0.58268">
        <ele>13.8</ele>
        <time>2016-05-28T12:44:02.000Z</time>
      </trkpt>
      <trkpt lat="49.33176" lon="-0.58282">
        <ele>13.3</ele>
        <time>2016-05-28T12:44:10.000Z</time>
      </trkpt>
      <trkpt lat="49.33177" lon="-0.58297">
        <ele>13.1</ele>
        <time>2016-05-28T12:44:18.000Z</time>
      </trkpt>
      <trkpt lat="49.33178" lon="-0.58311">
        <ele>12.9</ele>
        <time>2016-05-28T12:44:26.000Z</time>
      </trkpt>
      <trkpt lat="49.3318" lon="-0.58325">
        <ele>12.5</ele>
        <time>2016-05-28T12:44:34.000Z</time>
      </trkpt>
      <trkpt lat="49.33183" lon="-0.5834">
        <ele>12.2</ele>
        <time>2016-05-28T12:44:42.000Z</time>
      </trkpt>
      <trkpt lat="49.33186" lon="-0.58353">
        <ele>11.7</ele>
        <time>2016-05-28T12:44:50.000Z</time>
      </trkpt>
      <trkpt lat="49.33188" lon="-0.58368">
        <ele>11.3</ele>
        <time>2016-05-28T12:44:58.000Z</time>
      </trkpt>
      <trkpt lat="49.3319" lon="-0.58383">
        <ele>11</ele>
        <time>2016-05-28T12:45:07.000Z</time>
      </trkpt>
      <trkpt lat="49.3319" lon="-0.58397">
        <ele>10.5</ele>
        <time>2016-05-28T12:45:15.000Z</time>
      </trkpt>
      <trkpt lat="49.33191" lon="-0.58411">
        <ele>9.9</ele>
        <time>2016-05-28T12:45:25.000Z</time>
      </trkpt>
      <trkpt lat="49.33196" lon="-0.58424">
        <ele>9.6</ele>
        <time>2016-05-28T12:45:35.000Z</time>
      </trkpt>
      <trkpt lat="49.33205" lon="-0.5843">
        <ele>9.4</ele>
        <time>2016-05-28T12:45:45.000Z</time>
      </trkpt>
      <trkpt lat="49.33213" lon="-0.58437">
        <ele>9</ele>
        <time>2016-05-28T12:45:54.000Z</time>
      </trkpt>
      <trkpt lat="49.33221" lon="-0.58446">
        <ele>8.7</ele>
        <time>2016-05-28T12:46:03.000Z</time>
      </trkpt>
      <trkpt lat="49.3323" lon="-0.58452">
        <ele>8.1</ele>
        <time>2016-05-28T12:46:11.000Z</time>
      </trkpt>
      <trkpt lat="49.33239" lon="-0.58457">
        <ele>7.8</ele>
        <time>2016-05-28T12:46:19.000Z</time>
      </trkpt>
      <trkpt lat="49.33249" lon="-0.58458">
        <ele>7.2</ele>
        <time>2016-05-28T12:46:28.000Z</time>
      </trkpt>
      <trkpt lat="49.33258" lon="-0.58461">
        <ele>6.8</ele>
        <time>2016-05-28T12:46:36.000Z</time>
      </trkpt>
      <trkpt lat="49.33268" lon="-0.5846">
        <ele>6.1</ele>
        <time>2016-05-28T12:46:45.000Z</time>
      </trkpt>
      <trkpt lat="49.33277" lon="-0.58455">
        <ele>5.6</ele>
        <time>2016-05-28T12:46:53.000Z</time>
      </trkpt>
      <trkpt lat="49.33286" lon="-0.58449">
        <ele>5.4</ele>
        <time>2016-05-28T12:47:01.000Z</time>
      </trkpt>
      <trkpt lat="49.33294" lon="-0.58443">
        <ele>5.3</ele>
        <time>2016-05-28T12:47:09.000Z</time>
      </trkpt>
      <trkpt lat="49.33303" lon="-0.58437">
        <ele>5.3</ele>
        <time>2016-05-28T12:47:16.000Z</time>
      </trkpt>
      <trkpt lat="49.33312" lon="-0.58432">
        <ele>5.2</ele>
        <time>2016-05-28T12:47:25.000Z</time>
      </trkpt>
      <trkpt lat="49.33321" lon="-0.58426">
        <ele>5.3</ele>
        <time>2016-05-28T12:47:33.000Z</time>
      </trkpt>
      <trkpt lat="49.3333" lon="-0.58424">
        <ele>5.4</ele>
        <time>2016-05-28T12:47:41.000Z</time>
      </trkpt>
      <trkpt lat="49.33339" lon="-0.58417">
        <ele>5.4</ele>
        <time>2016-05-28T12:47:48.000Z</time>
      </trkpt>
      <trkpt lat="49.33347" lon="-0.58408">
        <ele>5.1</ele>
        <time>2016-05-28T12:47:57.000Z</time>
      </trkpt>
      <trkpt lat="49.33356" lon="-0.58402">
        <ele>4.9</ele>
        <time>2016-05-28T12:48:04.000Z</time>
      </trkpt>
      <trkpt lat="49.33364" lon="-0.58395">
        <ele>5</ele>
        <time>2016-05-28T12:48:13.000Z</time>
      </trkpt>
      <trkpt lat="49.33374" lon="-0.584">
        <ele>5</ele>
        <time>2016-05-28T12:48:21.000Z</time>
      </trkpt>
      <trkpt lat="49.33382" lon="-0.58409">
        <ele>5</ele>
        <time>2016-05-28T12:48:28.000Z</time>
      </trkpt>
      <trkpt lat="49.33388" lon="-0.58419">
        <ele>4.8</ele>
        <time>2016-05-28T12:48:35.000Z</time>
      </trkpt>
      <trkpt lat="49.33387" lon="-0.58434">
        <ele>4.4</ele>
        <time>2016-05-28T12:48:43.000Z</time>
      </trkpt>
      <trkpt lat="49.33385" lon="-0.58448">
        <ele>4.1</ele>
        <time>2016-05-28T12:48:53.000Z</time>
      </trkpt>
      <trkpt lat="49.33382" lon="-0.58462">
        <ele>3.4</ele>
        <time>2016-05-28T12:49:03.000Z</time>
      </trkpt>
      <trkpt lat="49.33383" lon="-0.58477">
        <ele>2.6</ele>
        <time>2016-05-28T12:49:13.000Z</time>
      </trkpt>
      <trkpt lat="49.33387" lon="-0.5849">
        <ele>2.2</ele>
        <time>2016-05-28T12:49:24.000Z</time>
      </trkpt>
      <trkpt lat="49.33391" lon="-0.58503">
        <ele>2.1</ele>
        <time>2016-05-28T12:49:35.000Z</time>
      </trkpt>
      <trkpt lat="49.33392" lon="-0.58517">
        <ele>2.1</ele>
        <time>2016-05-28T12:49:48.000Z</time>
      </trkpt>
      <trkpt lat="49.33392" lon="-0.58532">
        <ele>3</ele>
        <time>2016-05-28T12:50:01.000Z</time>
      </trkpt>
      <trkpt lat="49.33396" lon="-0.58546">
        <ele>3.6</ele>
        <time>2016-05-28T12:50:10.000Z</time>
      </trkpt>
      <trkpt lat="49.334" lon="-0.58559">
        <ele>4.5</ele>
        <time>2016-05-28T12:50:18.000Z</time>
      </trkpt>
      <trkpt lat="49.33403" lon="-0.58573">
        <ele>5.8</ele>
        <time>2016-05-28T12:50:27.000Z</time>
      </trkpt>
      <trkpt lat="49.33411" lon="-0.58581">
        <ele>7</ele>
        <time>2016-05-28T12:50:37.000Z</time>
      </trkpt>
      <trkpt lat="49.3342" lon="-0.5858">
        <ele>8</ele>
        <time>2016-05-28T12:50:54.000Z</time>
      </trkpt>
      <trkpt lat="49.33429" lon="-0.58582">
        <ele>8.2</ele>
        <time>2016-05-28T12:51:03.000Z</time>
      </trkpt>
      <trkpt lat="49.33435" lon="-0.58593">
        <ele>8.8</ele>
        <time>2016-05-28T12:51:15.000Z</time>
      </trkpt>
      <trkpt lat="49.3344" lon="-0.58605">
        <ele>9.2</ele>
        <time>2016-05-28T12:51:26.000Z</time>
      </trkpt>
      <trkpt lat="49.33447" lon="-0.58614">
        <ele>9.4</ele>
        <time>2016-05-28T12:51:40.000Z</time>
      </trkpt>
      <trkpt lat="49.33456" lon="-0.58609">
        <ele>9.5</ele>
        <time>2016-05-28T12:52:51.000Z</time>
      </trkpt>
      <trkpt lat="49.33466" lon="-0.58612">
        <ele>9.6</ele>
        <time>2016-05-28T12:53:10.000Z</time>
      </trkpt>
      <trkpt lat="49.33475" lon="-0.58612">
        <ele>9.8</ele>
        <time>2016-05-28T12:53:25.000Z</time>
      </trkpt>
      <trkpt lat="49.33485" lon="-0.58609">
        <ele>9.7</ele>
        <time>2016-05-28T12:53:35.000Z</time>
      </trkpt>
      <trkpt lat="49.33493" lon="-0.58601">
        <ele>9.3</ele>
        <time>2016-05-28T12:53:45.000Z</time>
      </trkpt>
      <trkpt lat="49.33502" lon="-0.58591">
        <ele>8</ele>
        <time>2016-05-28T12:53:57.000Z</time>
      </trkpt>
      <trkpt lat="49.33504" lon="-0.58606">
        <ele>7.2</ele>
        <time>2016-05-28T12:54:13.000Z</time>
      </trkpt>
      <trkpt lat="49.33504" lon="-0.5862">
        <ele>6.8</ele>
        <time>2016-05-28T12:54:23.000Z</time>
      </trkpt>
      <trkpt lat="49.33507" lon="-0.58635">
        <ele>7</ele>
        <time>2016-05-28T12:54:32.000Z</time>
      </trkpt>
      <trkpt lat="49.33509" lon="-0.58649">
        <ele>7.3</ele>
        <time>2016-05-28T12:54:41.000Z</time>
      </trkpt>
      <trkpt lat="49.33509" lon="-0.58664">
        <ele>7.6</ele>
        <time>2016-05-28T12:54:50.000Z</time>
      </trkpt>
      <trkpt lat="49.33509" lon="-0.58678">
        <ele>8.2</ele>
        <time>2016-05-28T12:54:59.000Z</time>
      </trkpt>
      <trkpt lat="49.33507" lon="-0.58692">
        <ele>8.9</ele>
        <time>2016-05-28T12:55:08.000Z</time>
      </trkpt>
      <trkpt lat="49.33504" lon="-0.58707">
        <ele>9.7</ele>
        <time>2016-05-28T12:55:18.000Z</time>
      </trkpt>
      <trkpt lat="49.33501" lon="-0.58722">
        <ele>10.3</ele>
        <time>2016-05-28T12:55:28.000Z</time>
      </trkpt>
      <trkpt lat="49.33497" lon="-0.58735">
        <ele>10.8</ele>
        <time>2016-05-28T12:55:37.000Z</time>
      </trkpt>
      <trkpt lat="49.33496" lon="-0.58749">
        <ele>11.1</ele>
        <time>2016-05-28T12:55:46.000Z</time>
      </trkpt>
      <trkpt lat="49.33493" lon="-0.58763">
        <ele>11.5</ele>
        <time>2016-05-28T12:55:55.000Z</time>
      </trkpt>
      <trkpt lat="49.33492" lon="-0.58777">
        <ele>11.8</ele>
        <time>2016-05-28T12:56:04.000Z</time>
      </trkpt>
      <trkpt lat="49.3349" lon="-0.58791">
        <ele>12</ele>
        <time>2016-05-28T12:56:13.000Z</time>
      </trkpt>
      <trkpt lat="49.33488" lon="-0.58806">
        <ele>12.4</ele>
        <time>2016-05-28T12:56:22.000Z</time>
      </trkpt>
      <trkpt lat="49.33486" lon="-0.5882">
        <ele>12.8</ele>
        <time>2016-05-28T12:56:31.000Z</time>
      </trkpt>
      <trkpt lat="49.33484" lon="-0.58834">
        <ele>13.3</ele>
        <time>2016-05-28T12:56:39.000Z</time>
      </trkpt>
      <trkpt lat="49.3348" lon="-0.58847">
        <ele>13.6</ele>
        <time>2016-05-28T12:56:47.000Z</time>
      </trkpt>
      <trkpt lat="49.33477" lon="-0.5886">
        <ele>13.8</ele>
        <time>2016-05-28T12:56:55.000Z</time>
      </trkpt>
      <trkpt lat="49.33473" lon="-0.58874">
        <ele>14.3</ele>
        <time>2016-05-28T12:57:04.000Z</time>
      </trkpt>
      <trkpt lat="49.3347" lon="-0.58887">
        <ele>14.8</ele>
        <time>2016-05-28T12:57:12.000Z</time>
      </trkpt>
      <trkpt lat="49.33466" lon="-0.589">
        <ele>15.1</ele>
        <time>2016-05-28T12:57:20.000Z</time>
      </trkpt>
      <trkpt lat="49.33461" lon="-0.58914">
        <ele>15.2</ele>
        <time>2016-05-28T12:57:29.000Z</time>
      </trkpt>
      <trkpt lat="49.33457" lon="-0.58927">
        <ele>15.4</ele>
        <time>2016-05-28T12:57:38.000Z</time>
      </trkpt>
      <trkpt lat="49.33453" lon="-0.58942">
        <ele>15.7</ele>
        <time>2016-05-28T12:57:47.000Z</time>
      </trkpt>
      <trkpt lat="49.33449" lon="-0.58956">
        <ele>16</ele>
        <time>2016-05-28T12:57:56.000Z</time>
      </trkpt>
      <trkpt lat="49.33446" lon="-0.5897">
        <ele>16.2</ele>
        <time>2016-05-28T12:58:05.000Z</time>
      </trkpt>
      <trkpt lat="49.33441" lon="-0.58983">
        <ele>16.2</ele>
        <time>2016-05-28T12:58:13.000Z</time>
      </trkpt>
      <trkpt lat="49.33437" lon="-0.58995">
        <ele>15.9</ele>
        <time>2016-05-28T12:58:21.000Z</time>
      </trkpt>
      <trkpt lat="49.33433" lon="-0.59009">
        <ele>16</ele>
        <time>2016-05-28T12:58:30.000Z</time>
      </trkpt>
      <trkpt lat="49.33428" lon="-0.59022">
        <ele>16.1</ele>
        <time>2016-05-28T12:58:38.000Z</time>
      </trkpt>
      <trkpt lat="49.33425" lon="-0.59036">
        <ele>16.3</ele>
        <time>2016-05-28T12:58:48.000Z</time>
      </trkpt>
      <trkpt lat="49.33422" lon="-0.59049">
        <ele>16.6</ele>
        <time>2016-05-28T12:58:57.000Z</time>
      </trkpt>
      <trkpt lat="49.33419" lon="-0.59062">
        <ele>16.7</ele>
        <time>2016-05-28T12:59:05.000Z</time>
      </trkpt>
      <trkpt lat="49.33415" lon="-0.59075">
        <ele>16.8</ele>
        <time>2016-05-28T12:59:13.000Z</time>
      </trkpt>
      <trkpt lat="49.33412" lon="-0.59088">
        <ele>16.9</ele>
        <time>2016-05-28T12:59:21.000Z</time>
      </trkpt>
      <trkpt lat="49.33409" lon="-0.59101">
        <ele>17</ele>
        <time>2016-05-28T12:59:29.000Z</time>
      </trkpt>
      <trkpt lat="49.33406" lon="-0.59116">
        <ele>17</ele>
        <time>2016-05-28T12:59:38.000Z</time>
      </trkpt>
      <trkpt lat="49.33403" lon="-0.5913">
        <ele>17</ele>
        <time>2016-05-28T12:59:47.000Z</time>
      </trkpt>
      <trkpt lat="49.33399" lon="-0.59143">
        <ele>17</ele>
        <time>2016-05-28T12:59:55.000Z</time>
      </trkpt>
      <trkpt lat="49.33396" lon="-0.59156">
        <ele>17.1</ele>
        <time>2016-05-28T13:00:03.000Z</time>
      </trkpt>
      <trkpt lat="49.33392" lon="-0.59169">
        <ele>17.2</ele>
        <time>2016-05-28T13:00:11.000Z</time>
      </trkpt>
      <trkpt lat="49.33388" lon="-0.59183">
        <ele>17.5</ele>
        <time>2016-05-28T13:00:20.000Z</time>
      </trkpt>
      <trkpt lat="49.33385" lon="-0.59196">
        <ele>17.6</ele>
        <time>2016-05-28T13:00:29.000Z</time>
      </trkpt>
      <trkpt lat="49.33382" lon="-0.59209">
        <ele>17.5</ele>
        <time>2016-05-28T13:00:37.000Z</time>
      </trkpt>
      <trkpt lat="49.33379" lon="-0.59223">
        <ele>17.4</ele>
        <time>2016-05-28T13:00:45.000Z</time>
      </trkpt>
      <trkpt lat="49.33376" lon="-0.59237">
        <ele>17.4</ele>
        <time>2016-05-28T13:00:54.000Z</time>
      </trkpt>
      <trkpt lat="49.33372" lon="-0.5925">
        <ele>17.3</ele>
        <time>2016-05-28T13:01:02.000Z</time>
      </trkpt>
      <trkpt lat="49.33368" lon="-0.59263">
        <ele>17.5</ele>
        <time>2016-05-28T13:01:10.000Z</time>
      </trkpt>
      <trkpt lat="49.33365" lon="-0.59276">
        <ele>17.4</ele>
        <time>2016-05-28T13:01:18.000Z</time>
      </trkpt>
      <trkpt lat="49.33361" lon="-0.5929">
        <ele>17.2</ele>
        <time>2016-05-28T13:01:28.000Z</time>
      </trkpt>
      <trkpt lat="49.33356" lon="-0.59301">
        <ele>17.2</ele>
        <time>2016-05-28T13:01:37.000Z</time>
      </trkpt>
      <trkpt lat="49.33347" lon="-0.59307">
        <ele>17.1</ele>
        <time>2016-05-28T13:01:46.000Z</time>
      </trkpt>
      <trkpt lat="49.33338" lon="-0.59305">
        <ele>17.7</ele>
        <time>2016-05-28T13:02:17.000Z</time>
      </trkpt>
      <trkpt lat="49.33328" lon="-0.59304">
        <ele>17.7</ele>
        <time>2016-05-28T13:02:26.000Z</time>
      </trkpt>
      <trkpt lat="49.33319" lon="-0.59304">
        <ele>17.2</ele>
        <time>2016-05-28T13:02:35.000Z</time>
      </trkpt>
      <trkpt lat="49.3331" lon="-0.59305">
        <ele>17.1</ele>
        <time>2016-05-28T13:02:44.000Z</time>
      </trkpt>
      <trkpt lat="49.333" lon="-0.59306">
        <ele>17.1</ele>
        <time>2016-05-28T13:02:54.000Z</time>
      </trkpt>
      <trkpt lat="49.33294" lon="-0.59317">
        <ele>17.2</ele>
        <time>2016-05-28T13:03:08.000Z</time>
      </trkpt>
      <trkpt lat="49.33294" lon="-0.59331">
        <ele>17.6</ele>
        <time>2016-05-28T13:03:17.000Z</time>
      </trkpt>
      <trkpt lat="49.33296" lon="-0.59346">
        <ele>17.4</ele>
        <time>2016-05-28T13:03:26.000Z</time>
      </trkpt>
      <trkpt lat="49.33296" lon="-0.5936">
        <ele>17.5</ele>
        <time>2016-05-28T13:03:35.000Z</time>
      </trkpt>
      <trkpt lat="49.33298" lon="-0.59373">
        <ele>17.4</ele>
        <time>2016-05-28T13:03:44.000Z</time>
      </trkpt>
      <trkpt lat="49.333" lon="-0.59387">
        <ele>17.3</ele>
        <time>2016-05-28T13:03:53.000Z</time>
      </trkpt>
      <trkpt lat="49.333" lon="-0.59402">
        <ele>17.2</ele>
        <time>2016-05-28T13:04:03.000Z</time>
      </trkpt>
      <trkpt lat="49.33301" lon="-0.59417">
        <ele>17.7</ele>
        <time>2016-05-28T13:04:12.000Z</time>
      </trkpt>
      <trkpt lat="49.33302" lon="-0.59431">
        <ele>17.2</ele>
        <time>2016-05-28T13:04:21.000Z</time>
      </trkpt>
      <trkpt lat="49.33302" lon="-0.59446">
        <ele>16.8</ele>
        <time>2016-05-28T13:04:30.000Z</time>
      </trkpt>
      <trkpt lat="49.33302" lon="-0.5946">
        <ele>16.7</ele>
        <time>2016-05-28T13:04:38.000Z</time>
      </trkpt>
      <trkpt lat="49.33303" lon="-0.59474">
        <ele>16.6</ele>
        <time>2016-05-28T13:04:46.000Z</time>
      </trkpt>
      <trkpt lat="49.33303" lon="-0.59489">
        <ele>16.7</ele>
        <time>2016-05-28T13:04:55.000Z</time>
      </trkpt>
      <trkpt lat="49.33303" lon="-0.59505">
        <ele>16.9</ele>
        <time>2016-05-28T13:05:04.000Z</time>
      </trkpt>
      <trkpt lat="49.33303" lon="-0.59519">
        <ele>17</ele>
        <time>2016-05-28T13:05:12.000Z</time>
      </trkpt>
      <trkpt lat="49.33304" lon="-0.59533">
        <ele>17.2</ele>
        <time>2016-05-28T13:05:20.000Z</time>
      </trkpt>
      <trkpt lat="49.33304" lon="-0.59548">
        <ele>17</ele>
        <time>2016-05-28T13:05:28.000Z</time>
      </trkpt>
      <trkpt lat="49.33305" lon="-0.59563">
        <ele>17</ele>
        <time>2016-05-28T13:05:37.000Z</time>
      </trkpt>
      <trkpt lat="49.33305" lon="-0.59578">
        <ele>17.1</ele>
        <time>2016-05-28T13:05:45.000Z</time>
      </trkpt>
      <trkpt lat="49.33305" lon="-0.59593">
        <ele>17.2</ele>
        <time>2016-05-28T13:05:53.000Z</time>
      </trkpt>
      <trkpt lat="49.33305" lon="-0.59607">
        <ele>17.3</ele>
        <time>2016-05-28T13:06:01.000Z</time>
      </trkpt>
      <trkpt lat="49.33303" lon="-0.59621">
        <ele>17.4</ele>
        <time>2016-05-28T13:06:08.000Z</time>
      </trkpt>
      <trkpt lat="49.33302" lon="-0.59636">
        <ele>17.4</ele>
        <time>2016-05-28T13:06:16.000Z</time>
      </trkpt>
      <trkpt lat="49.33301" lon="-0.59652">
        <ele>17.5</ele>
        <time>2016-05-28T13:06:24.000Z</time>
      </trkpt>
      <trkpt lat="49.33298" lon="-0.59666">
        <ele>17.5</ele>
        <time>2016-05-28T13:06:32.000Z</time>
      </trkpt>
      <trkpt lat="49.33296" lon="-0.5968">
        <ele>17.5</ele>
        <time>2016-05-28T13:06:40.000Z</time>
      </trkpt>
      <trkpt lat="49.33295" lon="-0.59694">
        <ele>17.6</ele>
        <time>2016-05-28T13:06:48.000Z</time>
      </trkpt>
      <trkpt lat="49.33293" lon="-0.59709">
        <ele>17.6</ele>
        <time>2016-05-28T13:06:56.000Z</time>
      </trkpt>
      <trkpt lat="49.33291" lon="-0.59723">
        <ele>17.6</ele>
        <time>2016-05-28T13:07:04.000Z</time>
      </trkpt>
      <trkpt lat="49.3329" lon="-0.59738">
        <ele>17.6</ele>
        <time>2016-05-28T13:07:12.000Z</time>
      </trkpt>
      <trkpt lat="49.33289" lon="-0.59753">
        <ele>17.6</ele>
        <time>2016-05-28T13:07:20.000Z</time>
      </trkpt>
      <trkpt lat="49.33287" lon="-0.59768">
        <ele>17.5</ele>
        <time>2016-05-28T13:07:28.000Z</time>
      </trkpt>
      <trkpt lat="49.33286" lon="-0.59783">
        <ele>17.5</ele>
        <time>2016-05-28T13:07:36.000Z</time>
      </trkpt>
      <trkpt lat="49.33284" lon="-0.59797">
        <ele>17.6</ele>
        <time>2016-05-28T13:07:44.000Z</time>
      </trkpt>
      <trkpt lat="49.33281" lon="-0.59812">
        <ele>17.6</ele>
        <time>2016-05-28T13:07:52.000Z</time>
      </trkpt>
      <trkpt lat="49.33279" lon="-0.59826">
        <ele>17.6</ele>
        <time>2016-05-28T13:08:00.000Z</time>
      </trkpt>
      <trkpt lat="49.33276" lon="-0.5984">
        <ele>17.5</ele>
        <time>2016-05-28T13:08:08.000Z</time>
      </trkpt>
      <trkpt lat="49.33274" lon="-0.59855">
        <ele>17.4</ele>
        <time>2016-05-28T13:08:16.000Z</time>
      </trkpt>
      <trkpt lat="49.33272" lon="-0.59869">
        <ele>17.3</ele>
        <time>2016-05-28T13:08:24.000Z</time>
      </trkpt>
      <trkpt lat="49.33269" lon="-0.59884">
        <ele>17.1</ele>
        <time>2016-05-28T13:08:32.000Z</time>
      </trkpt>
      <trkpt lat="49.33268" lon="-0.59898">
        <ele>17.1</ele>
        <time>2016-05-28T13:08:40.000Z</time>
      </trkpt>
      <trkpt lat="49.33266" lon="-0.59912">
        <ele>17.4</ele>
        <time>2016-05-28T13:08:48.000Z</time>
      </trkpt>
      <trkpt lat="49.33264" lon="-0.59927">
        <ele>17.2</ele>
        <time>2016-05-28T13:08:56.000Z</time>
      </trkpt>
      <trkpt lat="49.33262" lon="-0.59942">
        <ele>17</ele>
        <time>2016-05-28T13:09:04.000Z</time>
      </trkpt>
      <trkpt lat="49.33261" lon="-0.59956">
        <ele>17.1</ele>
        <time>2016-05-28T13:09:12.000Z</time>
      </trkpt>
      <trkpt lat="49.33259" lon="-0.5997">
        <ele>17.3</ele>
        <time>2016-05-28T13:09:20.000Z</time>
      </trkpt>
      <trkpt lat="49.33257" lon="-0.59985">
        <ele>17.4</ele>
        <time>2016-05-28T13:09:28.000Z</time>
      </trkpt>
      <trkpt lat="49.33255" lon="-0.59999">
        <ele>17.4</ele>
        <time>2016-05-28T13:09:38.000Z</time>
      </trkpt>
      <trkpt lat="49.33254" lon="-0.60013">
        <ele>17.4</ele>
        <time>2016-05-28T13:09:47.000Z</time>
      </trkpt>
      <trkpt lat="49.33251" lon="-0.60028">
        <ele>17.4</ele>
        <time>2016-05-28T13:09:55.000Z</time>
      </trkpt>
      <trkpt lat="49.33248" lon="-0.60043">
        <ele>17.3</ele>
        <time>2016-05-28T13:10:03.000Z</time>
      </trkpt>
      <trkpt lat="49.33246" lon="-0.60057">
        <ele>17.4</ele>
        <time>2016-05-28T13:10:10.000Z</time>
      </trkpt>
      <trkpt lat="49.33244" lon="-0.60071">
        <ele>17.7</ele>
        <time>2016-05-28T13:10:18.000Z</time>
      </trkpt>
      <trkpt lat="49.33243" lon="-0.60085">
        <ele>18</ele>
        <time>2016-05-28T13:10:28.000Z</time>
      </trkpt>
      <trkpt lat="49.33234" lon="-0.60088">
        <ele>17.9</ele>
        <time>2016-05-28T13:11:42.000Z</time>
      </trkpt>
      <trkpt lat="49.33224" lon="-0.60091">
        <ele>18</ele>
        <time>2016-05-28T13:15:18.000Z</time>
      </trkpt>
      <trkpt lat="49.33216" lon="-0.60099">
        <ele>18.3</ele>
        <time>2016-05-28T13:15:28.000Z</time>
      </trkpt>
      <trkpt lat="49.33209" lon="-0.60108">
        <ele>18.3</ele>
        <time>2016-05-28T13:15:37.000Z</time>
      </trkpt>
      <trkpt lat="49.33202" lon="-0.60117">
        <ele>18.1</ele>
        <time>2016-05-28T13:15:48.000Z</time>
      </trkpt>
      <trkpt lat="49.33193" lon="-0.6012">
        <ele>18</ele>
        <time>2016-05-28T13:15:56.000Z</time>
      </trkpt>
      <trkpt lat="49.33184" lon="-0.60126">
        <ele>18.3</ele>
        <time>2016-05-28T13:16:05.000Z</time>
      </trkpt>
      <trkpt lat="49.33176" lon="-0.60133">
        <ele>18.4</ele>
        <time>2016-05-28T13:16:14.000Z</time>
      </trkpt>
      <trkpt lat="49.33168" lon="-0.6014">
        <ele>18.4</ele>
        <time>2016-05-28T13:16:24.000Z</time>
      </trkpt>
      <trkpt lat="49.33159" lon="-0.60146">
        <ele>18.6</ele>
        <time>2016-05-28T13:16:35.000Z</time>
      </trkpt>
      <trkpt lat="49.33152" lon="-0.60155">
        <ele>18.8</ele>
        <time>2016-05-28T13:16:44.000Z</time>
      </trkpt>
      <trkpt lat="49.33143" lon="-0.60162">
        <ele>18.9</ele>
        <time>2016-05-28T13:16:53.000Z</time>
      </trkpt>
      <trkpt lat="49.33135" lon="-0.6017">
        <ele>19</ele>
        <time>2016-05-28T13:17:04.000Z</time>
      </trkpt>
      <trkpt lat="49.33126" lon="-0.60175">
        <ele>18.9</ele>
        <time>2016-05-28T13:17:14.000Z</time>
      </trkpt>
      <trkpt lat="49.33118" lon="-0.60185">
        <ele>18.9</ele>
        <time>2016-05-28T13:17:25.000Z</time>
      </trkpt>
      <trkpt lat="49.33109" lon="-0.60191">
        <ele>18.9</ele>
        <time>2016-05-28T13:17:35.000Z</time>
      </trkpt>
      <trkpt lat="49.33101" lon="-0.60198">
        <ele>19.4</ele>
        <time>2016-05-28T13:17:45.000Z</time>
      </trkpt>
      <trkpt lat="49.33092" lon="-0.60203">
        <ele>19.6</ele>
        <time>2016-05-28T13:17:54.000Z</time>
      </trkpt>
      <trkpt lat="49.33084" lon="-0.6021">
        <ele>19.8</ele>
        <time>2016-05-28T13:18:03.000Z</time>
      </trkpt>
      <trkpt lat="49.33077" lon="-0.60219">
        <ele>20.1</ele>
        <time>2016-05-28T13:18:13.000Z</time>
      </trkpt>
      <trkpt lat="49.33067" lon="-0.60223">
        <ele>20.3</ele>
        <time>2016-05-28T13:18:21.000Z</time>
      </trkpt>
      <trkpt lat="49.33058" lon="-0.60228">
        <ele>20.4</ele>
        <time>2016-05-28T13:18:29.000Z</time>
      </trkpt>
      <trkpt lat="49.3305" lon="-0.60235">
        <ele>20.4</ele>
        <time>2016-05-28T13:18:39.000Z</time>
      </trkpt>
      <trkpt lat="49.33047" lon="-0.60249">
        <ele>20.1</ele>
        <time>2016-05-28T13:19:44.000Z</time>
      </trkpt>
      <trkpt lat="49.33051" lon="-0.60263">
        <ele>20.3</ele>
        <time>2016-05-28T13:19:52.000Z</time>
      </trkpt>
      <trkpt lat="49.33056" lon="-0.60275">
        <ele>20.4</ele>
        <time>2016-05-28T13:20:00.000Z</time>
      </trkpt>
      <trkpt lat="49.33062" lon="-0.60287">
        <ele>20.5</ele>
        <time>2016-05-28T13:20:09.000Z</time>
      </trkpt>
      <trkpt lat="49.33065" lon="-0.60301">
        <ele>21</ele>
        <time>2016-05-28T13:20:16.000Z</time>
      </trkpt>
      <trkpt lat="49.33068" lon="-0.60314">
        <ele>21.5</ele>
        <time>2016-05-28T13:20:25.000Z</time>
      </trkpt>
      <trkpt lat="49.33072" lon="-0.60327">
        <ele>22</ele>
        <time>2016-05-28T13:20:37.000Z</time>
      </trkpt>
      <trkpt lat="49.33075" lon="-0.60342">
        <ele>22.3</ele>
        <time>2016-05-28T13:20:46.000Z</time>
      </trkpt>
      <trkpt lat="49.3308" lon="-0.60355">
        <ele>22.9</ele>
        <time>2016-05-28T13:20:53.000Z</time>
      </trkpt>
      <trkpt lat="49.33085" lon="-0.60367">
        <ele>23.1</ele>
        <time>2016-05-28T13:20:59.000Z</time>
      </trkpt>
      <trkpt lat="49.33087" lon="-0.60381">
        <ele>23.4</ele>
        <time>2016-05-28T13:21:07.000Z</time>
      </trkpt>
      <trkpt lat="49.33088" lon="-0.60396">
        <ele>23.8</ele>
        <time>2016-05-28T13:21:17.000Z</time>
      </trkpt>
      <trkpt lat="49.33089" lon="-0.60411">
        <ele>23.7</ele>
        <time>2016-05-28T13:21:27.000Z</time>
      </trkpt>
      <trkpt lat="49.33093" lon="-0.60424">
        <ele>23.7</ele>
        <time>2016-05-28T13:21:35.000Z</time>
      </trkpt>
      <trkpt lat="49.33095" lon="-0.60437">
        <ele>23.7</ele>
        <time>2016-05-28T13:21:43.000Z</time>
      </trkpt>
      <trkpt lat="49.33099" lon="-0.60451">
        <ele>23.5</ele>
        <time>2016-05-28T13:21:51.000Z</time>
      </trkpt>
      <trkpt lat="49.33104" lon="-0.60464">
        <ele>23.4</ele>
        <time>2016-05-28T13:21:59.000Z</time>
      </trkpt>
      <trkpt lat="49.33107" lon="-0.60477">
        <ele>23.4</ele>
        <time>2016-05-28T13:22:09.000Z</time>
      </trkpt>
      <trkpt lat="49.33112" lon="-0.60489">
        <ele>23.2</ele>
        <time>2016-05-28T13:22:16.000Z</time>
      </trkpt>
      <trkpt lat="49.33113" lon="-0.60504">
        <ele>23</ele>
        <time>2016-05-28T13:22:24.000Z</time>
      </trkpt>
      <trkpt lat="49.33114" lon="-0.60519">
        <ele>22.3</ele>
        <time>2016-05-28T13:22:34.000Z</time>
      </trkpt>
      <trkpt lat="49.33111" lon="-0.60533">
        <ele>21.9</ele>
        <time>2016-05-28T13:22:46.000Z</time>
      </trkpt>
      <trkpt lat="49.33108" lon="-0.60547">
        <ele>21.5</ele>
        <time>2016-05-28T13:22:57.000Z</time>
      </trkpt>
      <trkpt lat="49.33105" lon="-0.60561">
        <ele>21.1</ele>
        <time>2016-05-28T13:23:17.000Z</time>
      </trkpt>
      <trkpt lat="49.33097" lon="-0.60568">
        <ele>20.9</ele>
        <time>2016-05-28T13:23:43.000Z</time>
      </trkpt>
      <trkpt lat="49.33088" lon="-0.60571">
        <ele>21.2</ele>
        <time>2016-05-28T13:24:01.000Z</time>
      </trkpt>
      <trkpt lat="49.33078" lon="-0.60572">
        <ele>21.4</ele>
        <time>2016-05-28T13:24:10.000Z</time>
      </trkpt>
      <trkpt lat="49.3307" lon="-0.60581">
        <ele>21.9</ele>
        <time>2016-05-28T13:24:22.000Z</time>
      </trkpt>
      <trkpt lat="49.33061" lon="-0.60585">
        <ele>22.8</ele>
        <time>2016-05-28T13:24:35.000Z</time>
      </trkpt>
      <trkpt lat="49.33052" lon="-0.60586">
        <ele>23.5</ele>
        <time>2016-05-28T13:24:45.000Z</time>
      </trkpt>
      <trkpt lat="49.33044" lon="-0.60591">
        <ele>23.9</ele>
        <time>2016-05-28T13:24:53.000Z</time>
      </trkpt>
      <trkpt lat="49.33035" lon="-0.60596">
        <ele>24.3</ele>
        <time>2016-05-28T13:25:02.000Z</time>
      </trkpt>
      <trkpt lat="49.33027" lon="-0.60605">
        <ele>24.9</ele>
        <time>2016-05-28T13:25:12.000Z</time>
      </trkpt>
      <trkpt lat="49.33023" lon="-0.60619">
        <ele>25.4</ele>
        <time>2016-05-28T13:25:22.000Z</time>
      </trkpt>
      <trkpt lat="49.33018" lon="-0.60633">
        <ele>25.8</ele>
        <time>2016-05-28T13:25:29.000Z</time>
      </trkpt>
      <trkpt lat="49.33015" lon="-0.60648">
        <ele>26.1</ele>
        <time>2016-05-28T13:25:37.000Z</time>
      </trkpt>
      <trkpt lat="49.33013" lon="-0.60662">
        <ele>26.3</ele>
        <time>2016-05-28T13:25:44.000Z</time>
      </trkpt>
      <trkpt lat="49.33012" lon="-0.60676">
        <ele>26.5</ele>
        <time>2016-05-28T13:25:51.000Z</time>
      </trkpt>
      <trkpt lat="49.33009" lon="-0.60691">
        <ele>27.1</ele>
        <time>2016-05-28T13:25:59.000Z</time>
      </trkpt>
      <trkpt lat="49.33006" lon="-0.60706">
        <ele>27.4</ele>
        <time>2016-05-28T13:26:08.000Z</time>
      </trkpt>
      <trkpt lat="49.33004" lon="-0.60721">
        <ele>27.5</ele>
        <time>2016-05-28T13:26:17.000Z</time>
      </trkpt>
      <trkpt lat="49.33003" lon="-0.60735">
        <ele>28.2</ele>
        <time>2016-05-28T13:26:26.000Z</time>
      </trkpt>
      <trkpt lat="49.33005" lon="-0.60749">
        <ele>28.4</ele>
        <time>2016-05-28T13:26:35.000Z</time>
      </trkpt>
      <trkpt lat="49.33005" lon="-0.60764">
        <ele>28.4</ele>
        <time>2016-05-28T13:26:45.000Z</time>
      </trkpt>
      <trkpt lat="49.33005" lon="-0.6078">
        <ele>28.2</ele>
        <time>2016-05-28T13:26:54.000Z</time>
      </trkpt>
      <trkpt lat="49.33005" lon="-0.60795">
        <ele>28.3</ele>
        <time>2016-05-28T13:27:02.000Z</time>
      </trkpt>
      <trkpt lat="49.33007" lon="-0.6081">
        <ele>28.9</ele>
        <time>2016-05-28T13:27:10.000Z</time>
      </trkpt>
      <trkpt lat="49.33009" lon="-0.60825">
        <ele>29.2</ele>
        <time>2016-05-28T13:27:17.000Z</time>
      </trkpt>
      <trkpt lat="49.33011" lon="-0.6084">
        <ele>29.4</ele>
        <time>2016-05-28T13:27:26.000Z</time>
      </trkpt>
      <trkpt lat="49.33013" lon="-0.60854">
        <ele>29.3</ele>
        <time>2016-05-28T13:27:36.000Z</time>
      </trkpt>
      <trkpt lat="49.33015" lon="-0.60868">
        <ele>29.3</ele>
        <time>2016-05-28T13:27:43.000Z</time>
      </trkpt>
      <trkpt lat="49.33018" lon="-0.60883">
        <ele>29.2</ele>
        <time>2016-05-28T13:27:51.000Z</time>
      </trkpt>
      <trkpt lat="49.33021" lon="-0.60897">
        <ele>29.2</ele>
        <time>2016-05-28T13:27:59.000Z</time>
      </trkpt>
      <trkpt lat="49.33025" lon="-0.6091">
        <ele>29.2</ele>
        <time>2016-05-28T13:28:07.000Z</time>
      </trkpt>
      <trkpt lat="49.33028" lon="-0.60925">
        <ele>28.9</ele>
        <time>2016-05-28T13:28:16.000Z</time>
      </trkpt>
      <trkpt lat="49.33032" lon="-0.60938">
        <ele>28.3</ele>
        <time>2016-05-28T13:28:24.000Z</time>
      </trkpt>
      <trkpt lat="49.33036" lon="-0.60951">
        <ele>27.9</ele>
        <time>2016-05-28T13:28:32.000Z</time>
      </trkpt>
      <trkpt lat="49.3304" lon="-0.60964">
        <ele>28</ele>
        <time>2016-05-28T13:28:40.000Z</time>
      </trkpt>
      <trkpt lat="49.33044" lon="-0.60978">
        <ele>28.2</ele>
        <time>2016-05-28T13:28:51.000Z</time>
      </trkpt>
      <trkpt lat="49.33048" lon="-0.60991">
        <ele>28.1</ele>
        <time>2016-05-28T13:29:00.000Z</time>
      </trkpt>
      <trkpt lat="49.33052" lon="-0.61005">
        <ele>27.8</ele>
        <time>2016-05-28T13:29:08.000Z</time>
      </trkpt>
      <trkpt lat="49.33056" lon="-0.61019">
        <ele>28.3</ele>
        <time>2016-05-28T13:29:16.000Z</time>
      </trkpt>
      <trkpt lat="49.33058" lon="-0.61033">
        <ele>28.4</ele>
        <time>2016-05-28T13:29:24.000Z</time>
      </trkpt>
      <trkpt lat="49.33059" lon="-0.61047">
        <ele>28.4</ele>
        <time>2016-05-28T13:29:32.000Z</time>
      </trkpt>
      <trkpt lat="49.33061" lon="-0.61061">
        <ele>28.5</ele>
        <time>2016-05-28T13:29:39.000Z</time>
      </trkpt>
      <trkpt lat="49.33059" lon="-0.61075">
        <ele>28.5</ele>
        <time>2016-05-28T13:29:47.000Z</time>
      </trkpt>
      <trkpt lat="49.33059" lon="-0.6109">
        <ele>28.8</ele>
        <time>2016-05-28T13:29:55.000Z</time>
      </trkpt>
      <trkpt lat="49.33058" lon="-0.61104">
        <ele>29</ele>
        <time>2016-05-28T13:30:03.000Z</time>
      </trkpt>
      <trkpt lat="49.33058" lon="-0.61118">
        <ele>29.6</ele>
        <time>2016-05-28T13:30:12.000Z</time>
      </trkpt>
      <trkpt lat="49.33058" lon="-0.61133">
        <ele>30.4</ele>
        <time>2016-05-28T13:30:21.000Z</time>
      </trkpt>
      <trkpt lat="49.33058" lon="-0.61148">
        <ele>31</ele>
        <time>2016-05-28T13:30:31.000Z</time>
      </trkpt>
      <trkpt lat="49.33061" lon="-0.61163">
        <ele>32</ele>
        <time>2016-05-28T13:30:40.000Z</time>
      </trkpt>
      <trkpt lat="49.33063" lon="-0.61177">
        <ele>32.9</ele>
        <time>2016-05-28T13:30:51.000Z</time>
      </trkpt>
      <trkpt lat="49.33063" lon="-0.61192">
        <ele>34.3</ele>
        <time>2016-05-28T13:31:02.000Z</time>
      </trkpt>
      <trkpt lat="49.3306" lon="-0.61207">
        <ele>35.9</ele>
        <time>2016-05-28T13:31:14.000Z</time>
      </trkpt>
      <trkpt lat="49.3306" lon="-0.61221">
        <ele>37.1</ele>
        <time>2016-05-28T13:31:24.000Z</time>
      </trkpt>
      <trkpt lat="49.3306" lon="-0.61236">
        <ele>38.8</ele>
        <time>2016-05-28T13:31:36.000Z</time>
      </trkpt>
      <trkpt lat="49.33059" lon="-0.6125">
        <ele>40.5</ele>
        <time>2016-05-28T13:31:47.000Z</time>
      </trkpt>
      <trkpt lat="49.33054" lon="-0.61263">
        <ele>41.7</ele>
        <time>2016-05-28T13:31:57.000Z</time>
      </trkpt>
      <trkpt lat="49.33052" lon="-0.61278">
        <ele>42.4</ele>
        <time>2016-05-28T13:32:07.000Z</time>
      </trkpt>
      <trkpt lat="49.33049" lon="-0.61291">
        <ele>43.3</ele>
        <time>2016-05-28T13:32:17.000Z</time>
      </trkpt>
      <trkpt lat="49.33049" lon="-0.61306">
        <ele>44.7</ele>
        <time>2016-05-28T13:32:27.000Z</time>
      </trkpt>
      <trkpt lat="49.33046" lon="-0.6132">
        <ele>45.2</ele>
        <time>2016-05-28T13:32:34.000Z</time>
      </trkpt>
      <trkpt lat="49.33044" lon="-0.61333">
        <ele>45.7</ele>
        <time>2016-05-28T13:32:43.000Z</time>
      </trkpt>
      <trkpt lat="49.3304" lon="-0.61347">
        <ele>46.4</ele>
        <time>2016-05-28T13:32:53.000Z</time>
      </trkpt>
      <trkpt lat="49.33032" lon="-0.61357">
        <ele>47.3</ele>
        <time>2016-05-28T13:33:03.000Z</time>
      </trkpt>
      <trkpt lat="49.33026" lon="-0.61368">
        <ele>48.3</ele>
        <time>2016-05-28T13:33:11.000Z</time>
      </trkpt>
      <trkpt lat="49.3302" lon="-0.61379">
        <ele>49.3</ele>
        <time>2016-05-28T13:33:20.000Z</time>
      </trkpt>
      <trkpt lat="49.33016" lon="-0.61393">
        <ele>50.2</ele>
        <time>2016-05-28T13:33:29.000Z</time>
      </trkpt>
      <trkpt lat="49.33015" lon="-0.61407">
        <ele>51.1</ele>
        <time>2016-05-28T13:33:37.000Z</time>
      </trkpt>
      <trkpt lat="49.33014" lon="-0.61422">
        <ele>52</ele>
        <time>2016-05-28T13:33:46.000Z</time>
      </trkpt>
      <trkpt lat="49.33012" lon="-0.61436">
        <ele>52.8</ele>
        <time>2016-05-28T13:33:55.000Z</time>
      </trkpt>
      <trkpt lat="49.33013" lon="-0.6145">
        <ele>53.7</ele>
        <time>2016-05-28T13:34:03.000Z</time>
      </trkpt>
      <trkpt lat="49.33011" lon="-0.61466">
        <ele>54.3</ele>
        <time>2016-05-28T13:34:11.000Z</time>
      </trkpt>
      <trkpt lat="49.33012" lon="-0.6148">
        <ele>55</ele>
        <time>2016-05-28T13:34:20.000Z</time>
      </trkpt>
      <trkpt lat="49.33014" lon="-0.61494">
        <ele>55.6</ele>
        <time>2016-05-28T13:34:28.000Z</time>
      </trkpt>
      <trkpt lat="49.33015" lon="-0.61509">
        <ele>55.9</ele>
        <time>2016-05-28T13:34:36.000Z</time>
      </trkpt>
      <trkpt lat="49.33016" lon="-0.61522">
        <ele>56.2</ele>
        <time>2016-05-28T13:34:45.000Z</time>
      </trkpt>
      <trkpt lat="49.33017" lon="-0.61537">
        <ele>56.6</ele>
        <time>2016-05-28T13:34:54.000Z</time>
      </trkpt>
      <trkpt lat="49.33018" lon="-0.61551">
        <ele>56.2</ele>
        <time>2016-05-28T13:35:05.000Z</time>
      </trkpt>
      <trkpt lat="49.3302" lon="-0.61564">
        <ele>56</ele>
        <time>2016-05-28T13:35:12.000Z</time>
      </trkpt>
      <trkpt lat="49.33023" lon="-0.61579">
        <ele>55.9</ele>
        <time>2016-05-28T13:35:20.000Z</time>
      </trkpt>
      <trkpt lat="49.33026" lon="-0.61595">
        <ele>55</ele>
        <time>2016-05-28T13:35:27.000Z</time>
      </trkpt>
      <trkpt lat="49.33029" lon="-0.61609">
        <ele>55</ele>
        <time>2016-05-28T13:35:35.000Z</time>
      </trkpt>
      <trkpt lat="49.33033" lon="-0.61625">
        <ele>55</ele>
        <time>2016-05-28T13:35:43.000Z</time>
      </trkpt>
      <trkpt lat="49.33036" lon="-0.61643">
        <ele>55</ele>
        <time>2016-05-28T13:35:51.000Z</time>
      </trkpt>
      <trkpt lat="49.33037" lon="-0.61657">
        <ele>55</ele>
        <time>2016-05-28T13:35:59.000Z</time>
      </trkpt>
      <trkpt lat="49.33037" lon="-0.61678">
        <ele>55</ele>
        <time>2016-05-28T13:36:11.000Z</time>
      </trkpt>
      <trkpt lat="49.33041" lon="-0.61693">
        <ele>55</ele>
        <time>2016-05-28T13:36:19.000Z</time>
      </trkpt>
      <trkpt lat="49.33038" lon="-0.61708">
        <ele>55.8</ele>
        <time>2016-05-28T13:36:30.000Z</time>
      </trkpt>
      <trkpt lat="49.33041" lon="-0.61721">
        <ele>55.8</ele>
        <time>2016-05-28T13:36:36.000Z</time>
      </trkpt>
      <trkpt lat="49.33045" lon="-0.61733">
        <ele>55.7</ele>
        <time>2016-05-28T13:36:43.000Z</time>
      </trkpt>
      <trkpt lat="49.33048" lon="-0.61748">
        <ele>55.4</ele>
        <time>2016-05-28T13:36:51.000Z</time>
      </trkpt>
      <trkpt lat="49.33052" lon="-0.61761">
        <ele>55.2</ele>
        <time>2016-05-28T13:36:59.000Z</time>
      </trkpt>
      <trkpt lat="49.33055" lon="-0.61774">
        <ele>55</ele>
        <time>2016-05-28T13:37:05.000Z</time>
      </trkpt>
      <trkpt lat="49.33056" lon="-0.61789">
        <ele>54.7</ele>
        <time>2016-05-28T13:37:13.000Z</time>
      </trkpt>
      <trkpt lat="49.33054" lon="-0.61804">
        <ele>54.6</ele>
        <time>2016-05-28T13:37:22.000Z</time>
      </trkpt>
      <trkpt lat="49.33047" lon="-0.61815">
        <ele>54.6</ele>
        <time>2016-05-28T13:37:29.000Z</time>
      </trkpt>
      <trkpt lat="49.33039" lon="-0.61825">
        <ele>54.5</ele>
        <time>2016-05-28T13:37:38.000Z</time>
      </trkpt>
      <trkpt lat="49.33031" lon="-0.61831">
        <ele>54.5</ele>
        <time>2016-05-28T13:37:44.000Z</time>
      </trkpt>
      <trkpt lat="49.33025" lon="-0.61842">
        <ele>54.7</ele>
        <time>2016-05-28T13:37:52.000Z</time>
      </trkpt>
      <trkpt lat="49.33022" lon="-0.61855">
        <ele>54.9</ele>
        <time>2016-05-28T13:38:33.000Z</time>
      </trkpt>
      <trkpt lat="49.3303" lon="-0.61862">
        <ele>55</ele>
        <time>2016-05-28T13:40:36.000Z</time>
      </trkpt>
      <trkpt lat="49.33034" lon="-0.61875">
        <ele>54.9</ele>
        <time>2016-05-28T13:40:45.000Z</time>
      </trkpt>
      <trkpt lat="49.33038" lon="-0.61888">
        <ele>54.9</ele>
        <time>2016-05-28T13:40:54.000Z</time>
      </trkpt>
      <trkpt lat="49.33041" lon="-0.61901">
        <ele>54.8</ele>
        <time>2016-05-28T13:41:02.000Z</time>
      </trkpt>
      <trkpt lat="49.33044" lon="-0.61915">
        <ele>54.7</ele>
        <time>2016-05-28T13:41:11.000Z</time>
      </trkpt>
      <trkpt lat="49.33045" lon="-0.61931">
        <ele>54.7</ele>
        <time>2016-05-28T13:41:19.000Z</time>
      </trkpt>
      <trkpt lat="49.33047" lon="-0.61945">
        <ele>54.7</ele>
        <time>2016-05-28T13:41:28.000Z</time>
      </trkpt>
      <trkpt lat="49.33052" lon="-0.61958">
        <ele>54.7</ele>
        <time>2016-05-28T13:41:35.000Z</time>
      </trkpt>
      <trkpt lat="49.33056" lon="-0.61972">
        <ele>54.6</ele>
        <time>2016-05-28T13:41:42.000Z</time>
      </trkpt>
      <trkpt lat="49.33059" lon="-0.61987">
        <ele>54.5</ele>
        <time>2016-05-28T13:41:50.000Z</time>
      </trkpt>
      <trkpt lat="49.33062" lon="-0.62">
        <ele>54.5</ele>
        <time>2016-05-28T13:41:57.000Z</time>
      </trkpt>
      <trkpt lat="49.33064" lon="-0.62015">
        <ele>54.5</ele>
        <time>2016-05-28T13:42:05.000Z</time>
      </trkpt>
      <trkpt lat="49.33068" lon="-0.62027">
        <ele>54.3</ele>
        <time>2016-05-28T13:42:12.000Z</time>
      </trkpt>
      <trkpt lat="49.3307" lon="-0.62042">
        <ele>53.7</ele>
        <time>2016-05-28T13:42:21.000Z</time>
      </trkpt>
      <trkpt lat="49.33071" lon="-0.62056">
        <ele>53.5</ele>
        <time>2016-05-28T13:42:30.000Z</time>
      </trkpt>
      <trkpt lat="49.33075" lon="-0.62069">
        <ele>53.4</ele>
        <time>2016-05-28T13:42:38.000Z</time>
      </trkpt>
      <trkpt lat="49.33079" lon="-0.62083">
        <ele>53.5</ele>
        <time>2016-05-28T13:42:46.000Z</time>
      </trkpt>
      <trkpt lat="49.33083" lon="-0.62096">
        <ele>53.3</ele>
        <time>2016-05-28T13:42:54.000Z</time>
      </trkpt>
      <trkpt lat="49.33087" lon="-0.62108">
        <ele>53.2</ele>
        <time>2016-05-28T13:43:02.000Z</time>
      </trkpt>
      <trkpt lat="49.33089" lon="-0.62122">
        <ele>53</ele>
        <time>2016-05-28T13:43:11.000Z</time>
      </trkpt>
      <trkpt lat="49.33091" lon="-0.62138">
        <ele>52.9</ele>
        <time>2016-05-28T13:43:20.000Z</time>
      </trkpt>
      <trkpt lat="49.3309" lon="-0.62152">
        <ele>52.7</ele>
        <time>2016-05-28T13:43:28.000Z</time>
      </trkpt>
      <trkpt lat="49.33091" lon="-0.62166">
        <ele>52.1</ele>
        <time>2016-05-28T13:43:37.000Z</time>
      </trkpt>
      <trkpt lat="49.33094" lon="-0.62179">
        <ele>51.8</ele>
        <time>2016-05-28T13:43:44.000Z</time>
      </trkpt>
      <trkpt lat="49.33097" lon="-0.62194">
        <ele>51.7</ele>
        <time>2016-05-28T13:43:52.000Z</time>
      </trkpt>
      <trkpt lat="49.33101" lon="-0.62207">
        <ele>51.7</ele>
        <time>2016-05-28T13:43:59.000Z</time>
      </trkpt>
      <trkpt lat="49.33105" lon="-0.62221">
        <ele>51.6</ele>
        <time>2016-05-28T13:44:06.000Z</time>
      </trkpt>
      <trkpt lat="49.33108" lon="-0.62234">
        <ele>51.4</ele>
        <time>2016-05-28T13:44:13.000Z</time>
      </trkpt>
      <trkpt lat="49.3311" lon="-0.62248">
        <ele>51.3</ele>
        <time>2016-05-28T13:44:21.000Z</time>
      </trkpt>
      <trkpt lat="49.33114" lon="-0.62263">
        <ele>50.8</ele>
        <time>2016-05-28T13:44:29.000Z</time>
      </trkpt>
      <trkpt lat="49.33117" lon="-0.62276">
        <ele>50.7</ele>
        <time>2016-05-28T13:44:36.000Z</time>
      </trkpt>
      <trkpt lat="49.3312" lon="-0.62289">
        <ele>50.5</ele>
        <time>2016-05-28T13:44:43.000Z</time>
      </trkpt>
      <trkpt lat="49.33124" lon="-0.62303">
        <ele>50.2</ele>
        <time>2016-05-28T13:44:50.000Z</time>
      </trkpt>
      <trkpt lat="49.33127" lon="-0.62318">
        <ele>49.7</ele>
        <time>2016-05-28T13:44:58.000Z</time>
      </trkpt>
      <trkpt lat="49.33127" lon="-0.62333">
        <ele>49.2</ele>
        <time>2016-05-28T13:45:06.000Z</time>
      </trkpt>
      <trkpt lat="49.33127" lon="-0.62349">
        <ele>48.8</ele>
        <time>2016-05-28T13:45:14.000Z</time>
      </trkpt>
      <trkpt lat="49.33127" lon="-0.62364">
        <ele>48.1</ele>
        <time>2016-05-28T13:45:22.000Z</time>
      </trkpt>
      <trkpt lat="49.33128" lon="-0.62378">
        <ele>47.1</ele>
        <time>2016-05-28T13:45:31.000Z</time>
      </trkpt>
      <trkpt lat="49.33129" lon="-0.62393">
        <ele>46.3</ele>
        <time>2016-05-28T13:45:39.000Z</time>
      </trkpt>
      <trkpt lat="49.33131" lon="-0.62407">
        <ele>45.5</ele>
        <time>2016-05-28T13:45:47.000Z</time>
      </trkpt>
      <trkpt lat="49.33135" lon="-0.62421">
        <ele>44.5</ele>
        <time>2016-05-28T13:45:55.000Z</time>
      </trkpt>
      <trkpt lat="49.33138" lon="-0.62436">
        <ele>43.3</ele>
        <time>2016-05-28T13:46:03.000Z</time>
      </trkpt>
      <trkpt lat="49.3314" lon="-0.62449">
        <ele>41.7</ele>
        <time>2016-05-28T13:46:11.000Z</time>
      </trkpt>
      <trkpt lat="49.33144" lon="-0.62462">
        <ele>40</ele>
        <time>2016-05-28T13:46:19.000Z</time>
      </trkpt>
      <trkpt lat="49.33146" lon="-0.62477">
        <ele>38.5</ele>
        <time>2016-05-28T13:46:27.000Z</time>
      </trkpt>
      <trkpt lat="49.3315" lon="-0.6249">
        <ele>36.4</ele>
        <time>2016-05-28T13:46:41.000Z</time>
      </trkpt>
      <trkpt lat="49.33152" lon="-0.62503">
        <ele>35.4</ele>
        <time>2016-05-28T13:46:51.000Z</time>
      </trkpt>
      <trkpt lat="49.33155" lon="-0.62518">
        <ele>34.6</ele>
        <time>2016-05-28T13:47:04.000Z</time>
      </trkpt>
      <trkpt lat="49.33159" lon="-0.62532">
        <ele>34.3</ele>
        <time>2016-05-28T13:47:15.000Z</time>
      </trkpt>
      <trkpt lat="49.33163" lon="-0.62545">
        <ele>34.1</ele>
        <time>2016-05-28T13:47:24.000Z</time>
      </trkpt>
      <trkpt lat="49.33167" lon="-0.62557">
        <ele>33.9</ele>
        <time>2016-05-28T13:47:36.000Z</time>
      </trkpt>
      <trkpt lat="49.33171" lon="-0.6257">
        <ele>33.8</ele>
        <time>2016-05-28T13:47:45.000Z</time>
      </trkpt>
      <trkpt lat="49.33175" lon="-0.62583">
        <ele>33.8</ele>
        <time>2016-05-28T13:47:52.000Z</time>
      </trkpt>
      <trkpt lat="49.33179" lon="-0.62596">
        <ele>33.7</ele>
        <time>2016-05-28T13:47:59.000Z</time>
      </trkpt>
      <trkpt lat="49.33183" lon="-0.62609">
        <ele>33.7</ele>
        <time>2016-05-28T13:48:07.000Z</time>
      </trkpt>
      <trkpt lat="49.33188" lon="-0.62621">
        <ele>33.7</ele>
        <time>2016-05-28T13:48:16.000Z</time>
      </trkpt>
      <trkpt lat="49.33191" lon="-0.62634">
        <ele>33.5</ele>
        <time>2016-05-28T13:48:24.000Z</time>
      </trkpt>
      <trkpt lat="49.33195" lon="-0.62647">
        <ele>33.4</ele>
        <time>2016-05-28T13:48:32.000Z</time>
      </trkpt>
      <trkpt lat="49.33192" lon="-0.6266">
        <ele>33.1</ele>
        <time>2016-05-28T13:48:48.000Z</time>
      </trkpt>
      <trkpt lat="49.33184" lon="-0.62651">
        <ele>32.9</ele>
        <time>2016-05-28T13:50:52.000Z</time>
      </trkpt>
      <trkpt lat="49.33175" lon="-0.62651">
        <ele>32.8</ele>
        <time>2016-05-28T13:51:35.000Z</time>
      </trkpt>
      <trkpt lat="49.33182" lon="-0.6266">
        <ele>34.2</ele>
        <time>2016-05-28T13:52:58.000Z</time>
      </trkpt>
      <trkpt lat="49.3319" lon="-0.62667">
        <ele>34.2</ele>
        <time>2016-05-28T13:53:06.000Z</time>
      </trkpt>
      <trkpt lat="49.33198" lon="-0.62676">
        <ele>34.1</ele>
        <time>2016-05-28T13:53:14.000Z</time>
      </trkpt>
      <trkpt lat="49.33204" lon="-0.62688">
        <ele>33.6</ele>
        <time>2016-05-28T13:53:24.000Z</time>
      </trkpt>
      <trkpt lat="49.3321" lon="-0.62701">
        <ele>32.5</ele>
        <time>2016-05-28T13:53:31.000Z</time>
      </trkpt>
      <trkpt lat="49.33214" lon="-0.62713">
        <ele>31.5</ele>
        <time>2016-05-28T13:53:38.000Z</time>
      </trkpt>
      <trkpt lat="49.33219" lon="-0.62727">
        <ele>30.7</ele>
        <time>2016-05-28T13:53:48.000Z</time>
      </trkpt>
      <trkpt lat="49.33223" lon="-0.62739">
        <ele>29.6</ele>
        <time>2016-05-28T13:54:11.000Z</time>
      </trkpt>
      <trkpt lat="49.33226" lon="-0.62754">
        <ele>29.2</ele>
        <time>2016-05-28T13:54:31.000Z</time>
      </trkpt>
      <trkpt lat="49.33231" lon="-0.62768">
        <ele>29.1</ele>
        <time>2016-05-28T13:54:42.000Z</time>
      </trkpt>
      <trkpt lat="49.33236" lon="-0.62782">
        <ele>29.4</ele>
        <time>2016-05-28T13:54:52.000Z</time>
      </trkpt>
      <trkpt lat="49.33241" lon="-0.62793">
        <ele>29.7</ele>
        <time>2016-05-28T13:55:01.000Z</time>
      </trkpt>
      <trkpt lat="49.33248" lon="-0.62805">
        <ele>30.1</ele>
        <time>2016-05-28T13:55:09.000Z</time>
      </trkpt>
      <trkpt lat="49.3325" lon="-0.62819">
        <ele>31.4</ele>
        <time>2016-05-28T13:55:20.000Z</time>
      </trkpt>
      <trkpt lat="49.3325" lon="-0.62834">
        <ele>35.1</ele>
        <time>2016-05-28T13:55:44.000Z</time>
      </trkpt>
      <trkpt lat="49.33257" lon="-0.62845">
        <ele>36.9</ele>
        <time>2016-05-28T13:55:54.000Z</time>
      </trkpt>
      <trkpt lat="49.33261" lon="-0.62858">
        <ele>38.6</ele>
        <time>2016-05-28T13:56:06.000Z</time>
      </trkpt>
      <trkpt lat="49.33267" lon="-0.6287">
        <ele>40.4</ele>
        <time>2016-05-28T13:56:14.000Z</time>
      </trkpt>
      <trkpt lat="49.33272" lon="-0.62883">
        <ele>42.1</ele>
        <time>2016-05-28T13:56:22.000Z</time>
      </trkpt>
      <trkpt lat="49.33277" lon="-0.62895">
        <ele>43.6</ele>
        <time>2016-05-28T13:56:31.000Z</time>
      </trkpt>
      <trkpt lat="49.33279" lon="-0.62909">
        <ele>45</ele>
        <time>2016-05-28T13:56:41.000Z</time>
      </trkpt>
      <trkpt lat="49.33284" lon="-0.62922">
        <ele>45.9</ele>
        <time>2016-05-28T13:56:49.000Z</time>
      </trkpt>
      <trkpt lat="49.33288" lon="-0.62935">
        <ele>47</ele>
        <time>2016-05-28T13:57:00.000Z</time>
      </trkpt>
      <trkpt lat="49.33292" lon="-0.62948">
        <ele>48.3</ele>
        <time>2016-05-28T13:57:10.000Z</time>
      </trkpt>
      <trkpt lat="49.33296" lon="-0.62961">
        <ele>49.5</ele>
        <time>2016-05-28T13:57:21.000Z</time>
      </trkpt>
      <trkpt lat="49.33299" lon="-0.62975">
        <ele>50.5</ele>
        <time>2016-05-28T13:57:31.000Z</time>
      </trkpt>
      <trkpt lat="49.33303" lon="-0.62987">
        <ele>51.2</ele>
        <time>2016-05-28T13:57:41.000Z</time>
      </trkpt>
      <trkpt lat="49.33308" lon="-0.62999">
        <ele>51.7</ele>
        <time>2016-05-28T13:57:48.000Z</time>
      </trkpt>
      <trkpt lat="49.33312" lon="-0.63013">
        <ele>52.1</ele>
        <time>2016-05-28T13:57:56.000Z</time>
      </trkpt>
      <trkpt lat="49.33316" lon="-0.63026">
        <ele>53.1</ele>
        <time>2016-05-28T13:58:05.000Z</time>
      </trkpt>
      <trkpt lat="49.33321" lon="-0.63039">
        <ele>54</ele>
        <time>2016-05-28T13:58:13.000Z</time>
      </trkpt>
      <trkpt lat="49.33325" lon="-0.63052">
        <ele>54.8</ele>
        <time>2016-05-28T13:58:22.000Z</time>
      </trkpt>
      <trkpt lat="49.33329" lon="-0.63065">
        <ele>55.2</ele>
        <time>2016-05-28T13:58:30.000Z</time>
      </trkpt>
      <trkpt lat="49.33334" lon="-0.63077">
        <ele>55.4</ele>
        <time>2016-05-28T13:58:38.000Z</time>
      </trkpt>
      <trkpt lat="49.33336" lon="-0.63091">
        <ele>55.9</ele>
        <time>2016-05-28T13:58:48.000Z</time>
      </trkpt>
      <trkpt lat="49.33339" lon="-0.63104">
        <ele>56.5</ele>
        <time>2016-05-28T13:58:58.000Z</time>
      </trkpt>
      <trkpt lat="49.33343" lon="-0.63118">
        <ele>57.2</ele>
        <time>2016-05-28T13:59:07.000Z</time>
      </trkpt>
      <trkpt lat="49.33347" lon="-0.63132">
        <ele>57.6</ele>
        <time>2016-05-28T13:59:15.000Z</time>
      </trkpt>
      <trkpt lat="49.33351" lon="-0.63145">
        <ele>57.9</ele>
        <time>2016-05-28T13:59:23.000Z</time>
      </trkpt>
      <trkpt lat="49.33356" lon="-0.63158">
        <ele>57.9</ele>
        <time>2016-05-28T13:59:30.000Z</time>
      </trkpt>
      <trkpt lat="49.33359" lon="-0.63171">
        <ele>58</ele>
        <time>2016-05-28T13:59:40.000Z</time>
      </trkpt>
      <trkpt lat="49.33364" lon="-0.63183">
        <ele>58</ele>
        <time>2016-05-28T14:00:00.000Z</time>
      </trkpt>
      <trkpt lat="49.33373" lon="-0.63185">
        <ele>58.1</ele>
        <time>2016-05-28T14:01:05.000Z</time>
      </trkpt>
      <trkpt lat="49.33373" lon="-0.6317">
        <ele>58</ele>
        <time>2016-05-28T14:01:30.000Z</time>
      </trkpt>
      <trkpt lat="49.33372" lon="-0.63155">
        <ele>57.8</ele>
        <time>2016-05-28T14:01:40.000Z</time>
      </trkpt>
      <trkpt lat="49.33371" lon="-0.6314">
        <ele>57.7</ele>
        <time>2016-05-28T14:01:49.000Z</time>
      </trkpt>
      <trkpt lat="49.33371" lon="-0.63126">
        <ele>57.8</ele>
        <time>2016-05-28T14:01:57.000Z</time>
      </trkpt>
      <trkpt lat="49.33373" lon="-0.63112">
        <ele>57.8</ele>
        <time>2016-05-28T14:02:05.000Z</time>
      </trkpt>
      <trkpt lat="49.33375" lon="-0.63098">
        <ele>57.8</ele>
        <time>2016-05-28T14:02:12.000Z</time>
      </trkpt>
      <trkpt lat="49.33379" lon="-0.63085">
        <ele>57.9</ele>
        <time>2016-05-28T14:02:19.000Z</time>
      </trkpt>
      <trkpt lat="49.33383" lon="-0.63071">
        <ele>57.9</ele>
        <time>2016-05-28T14:02:26.000Z</time>
      </trkpt>
      <trkpt lat="49.33387" lon="-0.63057">
        <ele>57.7</ele>
        <time>2016-05-28T14:02:33.000Z</time>
      </trkpt>
      <trkpt lat="49.3339" lon="-0.63044">
        <ele>57.5</ele>
        <time>2016-05-28T14:02:39.000Z</time>
      </trkpt>
      <trkpt lat="49.33395" lon="-0.63029">
        <ele>57.3</ele>
        <time>2016-05-28T14:02:46.000Z</time>
      </trkpt>
      <trkpt lat="49.33398" lon="-0.63015">
        <ele>57.3</ele>
        <time>2016-05-28T14:02:53.000Z</time>
      </trkpt>
      <trkpt lat="49.33403" lon="-0.63002">
        <ele>57.4</ele>
        <time>2016-05-28T14:03:01.000Z</time>
      </trkpt>
      <trkpt lat="49.33405" lon="-0.62989">
        <ele>57.3</ele>
        <time>2016-05-28T14:03:10.000Z</time>
      </trkpt>
      <trkpt lat="49.33408" lon="-0.62974">
        <ele>56.9</ele>
        <time>2016-05-28T14:03:19.000Z</time>
      </trkpt>
      <trkpt lat="49.3341" lon="-0.62959">
        <ele>56.5</ele>
        <time>2016-05-28T14:03:28.000Z</time>
      </trkpt>
      <trkpt lat="49.33409" lon="-0.62944">
        <ele>56.3</ele>
        <time>2016-05-28T14:03:35.000Z</time>
      </trkpt>
      <trkpt lat="49.33409" lon="-0.62928">
        <ele>55.7</ele>
        <time>2016-05-28T14:03:43.000Z</time>
      </trkpt>
      <trkpt lat="49.33409" lon="-0.62914">
        <ele>55.2</ele>
        <time>2016-05-28T14:03:51.000Z</time>
      </trkpt>
      <trkpt lat="49.33407" lon="-0.629">
        <ele>54.5</ele>
        <time>2016-05-28T14:03:59.000Z</time>
      </trkpt>
      <trkpt lat="49.33406" lon="-0.62885">
        <ele>54</ele>
        <time>2016-05-28T14:04:07.000Z</time>
      </trkpt>
      <trkpt lat="49.33409" lon="-0.62871">
        <ele>53.5</ele>
        <time>2016-05-28T14:04:14.000Z</time>
      </trkpt>
      <trkpt lat="49.33412" lon="-0.62858">
        <ele>52.9</ele>
        <time>2016-05-28T14:04:21.000Z</time>
      </trkpt>
      <trkpt lat="49.33418" lon="-0.62845">
        <ele>52.4</ele>
        <time>2016-05-28T14:04:28.000Z</time>
      </trkpt>
      <trkpt lat="49.33422" lon="-0.62832">
        <ele>52.2</ele>
        <time>2016-05-28T14:04:34.000Z</time>
      </trkpt>
      <trkpt lat="49.33426" lon="-0.62817">
        <ele>51.9</ele>
        <time>2016-05-28T14:04:41.000Z</time>
      </trkpt>
      <trkpt lat="49.33431" lon="-0.62806">
        <ele>51.4</ele>
        <time>2016-05-28T14:04:47.000Z</time>
      </trkpt>
      <trkpt lat="49.33435" lon="-0.62792">
        <ele>50.9</ele>
        <time>2016-05-28T14:04:54.000Z</time>
      </trkpt>
      <trkpt lat="49.3344" lon="-0.62779">
        <ele>50.2</ele>
        <time>2016-05-28T14:05:01.000Z</time>
      </trkpt>
      <trkpt lat="49.33446" lon="-0.62767">
        <ele>49.9</ele>
        <time>2016-05-28T14:05:08.000Z</time>
      </trkpt>
      <trkpt lat="49.33451" lon="-0.62754">
        <ele>49.4</ele>
        <time>2016-05-28T14:05:15.000Z</time>
      </trkpt>
      <trkpt lat="49.33456" lon="-0.62742">
        <ele>49.1</ele>
        <time>2016-05-28T14:05:22.000Z</time>
      </trkpt>
      <trkpt lat="49.33462" lon="-0.62731">
        <ele>48.8</ele>
        <time>2016-05-28T14:05:30.000Z</time>
      </trkpt>
      <trkpt lat="49.33468" lon="-0.6272">
        <ele>48.4</ele>
        <time>2016-05-28T14:05:37.000Z</time>
      </trkpt>
      <trkpt lat="49.33474" lon="-0.62708">
        <ele>48.2</ele>
        <time>2016-05-28T14:05:45.000Z</time>
      </trkpt>
      <trkpt lat="49.33482" lon="-0.62698">
        <ele>47.7</ele>
        <time>2016-05-28T14:05:53.000Z</time>
      </trkpt>
      <trkpt lat="49.33488" lon="-0.62687">
        <ele>47.3</ele>
        <time>2016-05-28T14:06:02.000Z</time>
      </trkpt>
      <trkpt lat="49.33496" lon="-0.62677">
        <ele>47</ele>
        <time>2016-05-28T14:06:11.000Z</time>
      </trkpt>
      <trkpt lat="49.33504" lon="-0.62671">
        <ele>46.6</ele>
        <time>2016-05-28T14:06:19.000Z</time>
      </trkpt>
      <trkpt lat="49.33512" lon="-0.62663">
        <ele>46.1</ele>
        <time>2016-05-28T14:06:27.000Z</time>
      </trkpt>
      <trkpt lat="49.3352" lon="-0.62657">
        <ele>45.7</ele>
        <time>2016-05-28T14:06:35.000Z</time>
      </trkpt>
      <trkpt lat="49.33528" lon="-0.6265">
        <ele>45.5</ele>
        <time>2016-05-28T14:06:43.000Z</time>
      </trkpt>
      <trkpt lat="49.33536" lon="-0.62643">
        <ele>45.2</ele>
        <time>2016-05-28T14:06:51.000Z</time>
      </trkpt>
      <trkpt lat="49.33545" lon="-0.62636">
        <ele>44.4</ele>
        <time>2016-05-28T14:06:59.000Z</time>
      </trkpt>
      <trkpt lat="49.33554" lon="-0.62629">
        <ele>43.6</ele>
        <time>2016-05-28T14:07:07.000Z</time>
      </trkpt>
      <trkpt lat="49.33563" lon="-0.6262">
        <ele>42.3</ele>
        <time>2016-05-28T14:07:16.000Z</time>
      </trkpt>
      <trkpt lat="49.33572" lon="-0.62613">
        <ele>41.4</ele>
        <time>2016-05-28T14:07:24.000Z</time>
      </trkpt>
      <trkpt lat="49.3358" lon="-0.62609">
        <ele>40.3</ele>
        <time>2016-05-28T14:07:32.000Z</time>
      </trkpt>
      <trkpt lat="49.3359" lon="-0.62605">
        <ele>39.5</ele>
        <time>2016-05-28T14:07:40.000Z</time>
      </trkpt>
      <trkpt lat="49.33598" lon="-0.62598">
        <ele>38.8</ele>
        <time>2016-05-28T14:07:47.000Z</time>
      </trkpt>
      <trkpt lat="49.33607" lon="-0.6259">
        <ele>37.6</ele>
        <time>2016-05-28T14:07:55.000Z</time>
      </trkpt>
      <trkpt lat="49.33615" lon="-0.62585">
        <ele>36.8</ele>
        <time>2016-05-28T14:08:03.000Z</time>
      </trkpt>
      <trkpt lat="49.33624" lon="-0.62579">
        <ele>35.9</ele>
        <time>2016-05-28T14:08:11.000Z</time>
      </trkpt>
      <trkpt lat="49.33633" lon="-0.62573">
        <ele>35.1</ele>
        <time>2016-05-28T14:08:19.000Z</time>
      </trkpt>
      <trkpt lat="49.33642" lon="-0.62565">
        <ele>34.4</ele>
        <time>2016-05-28T14:08:27.000Z</time>
      </trkpt>
      <trkpt lat="49.33649" lon="-0.62555">
        <ele>33.5</ele>
        <time>2016-05-28T14:08:35.000Z</time>
      </trkpt>
      <trkpt lat="49.33655" lon="-0.62545">
        <ele>32.8</ele>
        <time>2016-05-28T14:08:42.000Z</time>
      </trkpt>
      <trkpt lat="49.33661" lon="-0.62534">
        <ele>32.2</ele>
        <time>2016-05-28T14:08:49.000Z</time>
      </trkpt>
      <trkpt lat="49.33667" lon="-0.62522">
        <ele>31.1</ele>
        <time>2016-05-28T14:08:58.000Z</time>
      </trkpt>
      <trkpt lat="49.33673" lon="-0.6251">
        <ele>30.2</ele>
        <time>2016-05-28T14:09:07.000Z</time>
      </trkpt>
      <trkpt lat="49.33679" lon="-0.62497">
        <ele>29.5</ele>
        <time>2016-05-28T14:09:16.000Z</time>
      </trkpt>
      <trkpt lat="49.33685" lon="-0.62485">
        <ele>29</ele>
        <time>2016-05-28T14:09:25.000Z</time>
      </trkpt>
      <trkpt lat="49.33692" lon="-0.62474">
        <ele>28.7</ele>
        <time>2016-05-28T14:09:32.000Z</time>
      </trkpt>
      <trkpt lat="49.33696" lon="-0.62462">
        <ele>28.4</ele>
        <time>2016-05-28T14:09:39.000Z</time>
      </trkpt>
      <trkpt lat="49.33701" lon="-0.62449">
        <ele>27.8</ele>
        <time>2016-05-28T14:09:47.000Z</time>
      </trkpt>
      <trkpt lat="49.33708" lon="-0.62438">
        <ele>27.4</ele>
        <time>2016-05-28T14:09:55.000Z</time>
      </trkpt>
      <trkpt lat="49.33713" lon="-0.62425">
        <ele>27.2</ele>
        <time>2016-05-28T14:10:03.000Z</time>
      </trkpt>
      <trkpt lat="49.33719" lon="-0.62413">
        <ele>26.6</ele>
        <time>2016-05-28T14:10:11.000Z</time>
      </trkpt>
      <trkpt lat="49.33725" lon="-0.62402">
        <ele>25.8</ele>
        <time>2016-05-28T14:10:19.000Z</time>
      </trkpt>
      <trkpt lat="49.33731" lon="-0.62389">
        <ele>25.5</ele>
        <time>2016-05-28T14:10:27.000Z</time>
      </trkpt>
      <trkpt lat="49.33735" lon="-0.62376">
        <ele>25.1</ele>
        <time>2016-05-28T14:10:35.000Z</time>
      </trkpt>
      <trkpt lat="49.3374" lon="-0.62364">
        <ele>24.7</ele>
        <time>2016-05-28T14:10:43.000Z</time>
      </trkpt>
      <trkpt lat="49.33745" lon="-0.62351">
        <ele>23.8</ele>
        <time>2016-05-28T14:10:51.000Z</time>
      </trkpt>
      <trkpt lat="49.33752" lon="-0.62343">
        <ele>23.2</ele>
        <time>2016-05-28T14:11:00.000Z</time>
      </trkpt>
      <trkpt lat="49.33761" lon="-0.62345">
        <ele>22.1</ele>
        <time>2016-05-28T14:11:12.000Z</time>
      </trkpt>
      <trkpt lat="49.33769" lon="-0.62354">
        <ele>21.2</ele>
        <time>2016-05-28T14:11:22.000Z</time>
      </trkpt>
      <trkpt lat="49.33772" lon="-0.62367">
        <ele>20.9</ele>
        <time>2016-05-28T14:11:31.000Z</time>
      </trkpt>
      <trkpt lat="49.33775" lon="-0.6238">
        <ele>20.8</ele>
        <time>2016-05-28T14:11:41.000Z</time>
      </trkpt>
      <trkpt lat="49.33781" lon="-0.6239">
        <ele>20.2</ele>
        <time>2016-05-28T14:12:07.000Z</time>
      </trkpt>
      <trkpt lat="49.33791" lon="-0.62389">
        <ele>19.7</ele>
        <time>2016-05-28T14:13:37.000Z</time>
      </trkpt>
      <trkpt lat="49.33799" lon="-0.62383">
        <ele>19.3</ele>
        <time>2016-05-28T14:13:48.000Z</time>
      </trkpt>
      <trkpt lat="49.33809" lon="-0.62381">
        <ele>18.9</ele>
        <time>2016-05-28T14:13:57.000Z</time>
      </trkpt>
      <trkpt lat="49.33819" lon="-0.62381">
        <ele>18.3</ele>
        <time>2016-05-28T14:14:06.000Z</time>
      </trkpt>
      <trkpt lat="49.33829" lon="-0.62383">
        <ele>17.1</ele>
        <time>2016-05-28T14:14:19.000Z</time>
      </trkpt>
      <trkpt lat="49.33838" lon="-0.62388">
        <ele>16.5</ele>
        <time>2016-05-28T14:14:26.000Z</time>
      </trkpt>
      <trkpt lat="49.33848" lon="-0.62388">
        <ele>15.9</ele>
        <time>2016-05-28T14:14:36.000Z</time>
      </trkpt>
      <trkpt lat="49.33857" lon="-0.62385">
        <ele>15.6</ele>
        <time>2016-05-28T14:14:44.000Z</time>
      </trkpt>
      <trkpt lat="49.33867" lon="-0.62382">
        <ele>15</ele>
        <time>2016-05-28T14:14:53.000Z</time>
      </trkpt>
      <trkpt lat="49.33876" lon="-0.6238">
        <ele>14.6</ele>
        <time>2016-05-28T14:15:00.000Z</time>
      </trkpt>
      <trkpt lat="49.33885" lon="-0.62378">
        <ele>14</ele>
        <time>2016-05-28T14:15:08.000Z</time>
      </trkpt>
      <trkpt lat="49.33894" lon="-0.62376">
        <ele>13.5</ele>
        <time>2016-05-28T14:15:18.000Z</time>
      </trkpt>
      <trkpt lat="49.33903" lon="-0.62374">
        <ele>13.1</ele>
        <time>2016-05-28T14:15:29.000Z</time>
      </trkpt>
      <trkpt lat="49.33914" lon="-0.6237">
        <ele>11.9</ele>
        <time>2016-05-28T14:15:43.000Z</time>
      </trkpt>
      <trkpt lat="49.33923" lon="-0.62369">
        <ele>11.5</ele>
        <time>2016-05-28T14:15:50.000Z</time>
      </trkpt>
      <trkpt lat="49.33933" lon="-0.62368">
        <ele>10.9</ele>
        <time>2016-05-28T14:15:58.000Z</time>
      </trkpt>
      <trkpt lat="49.33943" lon="-0.62363">
        <ele>10.4</ele>
        <time>2016-05-28T14:16:07.000Z</time>
      </trkpt>
      <trkpt lat="49.33952" lon="-0.6236">
        <ele>10.2</ele>
        <time>2016-05-28T14:16:17.000Z</time>
      </trkpt>
      <trkpt lat="49.33961" lon="-0.62355">
        <ele>10.1</ele>
        <time>2016-05-28T14:16:25.000Z</time>
      </trkpt>
      <trkpt lat="49.33971" lon="-0.62355">
        <ele>10.1</ele>
        <time>2016-05-28T14:16:33.000Z</time>
      </trkpt>
      <trkpt lat="49.33981" lon="-0.62356">
        <ele>10.2</ele>
        <time>2016-05-28T14:16:39.000Z</time>
      </trkpt>
      <trkpt lat="49.3399" lon="-0.62362">
        <ele>10.1</ele>
        <time>2016-05-28T14:16:45.000Z</time>
      </trkpt>
      <trkpt lat="49.33996" lon="-0.62374">
        <ele>9.8</ele>
        <time>2016-05-28T14:17:00.000Z</time>
      </trkpt>
      <trkpt lat="49.34001" lon="-0.62387">
        <ele>9.7</ele>
        <time>2016-05-28T14:17:15.000Z</time>
      </trkpt>
      <trkpt lat="49.34009" lon="-0.62392">
        <ele>9.7</ele>
        <time>2016-05-28T14:17:23.000Z</time>
      </trkpt>
      <trkpt lat="49.34019" lon="-0.62397">
        <ele>9.7</ele>
        <time>2016-05-28T14:17:31.000Z</time>
      </trkpt>
      <trkpt lat="49.34028" lon="-0.62391">
        <ele>9.7</ele>
        <time>2016-05-28T14:17:37.000Z</time>
      </trkpt>
      <trkpt lat="49.34033" lon="-0.62379">
        <ele>9.6</ele>
        <time>2016-05-28T14:17:44.000Z</time>
      </trkpt>
      <trkpt lat="49.34036" lon="-0.62364">
        <ele>9.4</ele>
        <time>2016-05-28T14:17:52.000Z</time>
      </trkpt>
      <trkpt lat="49.34038" lon="-0.6235">
        <ele>9.2</ele>
        <time>2016-05-28T14:17:59.000Z</time>
      </trkpt>
      <trkpt lat="49.34041" lon="-0.62337">
        <ele>9</ele>
        <time>2016-05-28T14:18:08.000Z</time>
      </trkpt>
      <trkpt lat="49.34043" lon="-0.62323">
        <ele>8.8</ele>
        <time>2016-05-28T14:18:16.000Z</time>
      </trkpt>
      <trkpt lat="49.34045" lon="-0.62308">
        <ele>8.7</ele>
        <time>2016-05-28T14:18:25.000Z</time>
      </trkpt>
      <trkpt lat="49.34046" lon="-0.62294">
        <ele>8.7</ele>
        <time>2016-05-28T14:18:33.000Z</time>
      </trkpt>
      <trkpt lat="49.34049" lon="-0.62281">
        <ele>8.7</ele>
        <time>2016-05-28T14:18:41.000Z</time>
      </trkpt>
      <trkpt lat="49.34051" lon="-0.62267">
        <ele>8.8</ele>
        <time>2016-05-28T14:18:49.000Z</time>
      </trkpt>
      <trkpt lat="49.34052" lon="-0.62253">
        <ele>8.8</ele>
        <time>2016-05-28T14:18:57.000Z</time>
      </trkpt>
      <trkpt lat="49.34052" lon="-0.62239">
        <ele>8.9</ele>
        <time>2016-05-28T14:19:07.000Z</time>
      </trkpt>
      <trkpt lat="49.34049" lon="-0.62225">
        <ele>9</ele>
        <time>2016-05-28T14:19:17.000Z</time>
      </trkpt>
      <trkpt lat="49.34043" lon="-0.62214">
        <ele>9.3</ele>
        <time>2016-05-28T14:19:26.000Z</time>
      </trkpt>
      <trkpt lat="49.34038" lon="-0.62201">
        <ele>9.5</ele>
        <time>2016-05-28T14:19:38.000Z</time>
      </trkpt>
      <trkpt lat="49.34037" lon="-0.62186">
        <ele>9.5</ele>
        <time>2016-05-28T14:19:59.000Z</time>
      </trkpt>
      <trkpt lat="49.34036" lon="-0.62172">
        <ele>9.6</ele>
        <time>2016-05-28T14:20:07.000Z</time>
      </trkpt>
      <trkpt lat="49.34034" lon="-0.62158">
        <ele>9.7</ele>
        <time>2016-05-28T14:20:16.000Z</time>
      </trkpt>
      <trkpt lat="49.34035" lon="-0.62144">
        <ele>9.8</ele>
        <time>2016-05-28T14:20:27.000Z</time>
      </trkpt>
      <trkpt lat="49.34036" lon="-0.62129">
        <ele>9.8</ele>
        <time>2016-05-28T14:20:36.000Z</time>
      </trkpt>
      <trkpt lat="49.3404" lon="-0.62115">
        <ele>9.8</ele>
        <time>2016-05-28T14:20:45.000Z</time>
      </trkpt>
      <trkpt lat="49.34043" lon="-0.62102">
        <ele>9.7</ele>
        <time>2016-05-28T14:20:56.000Z</time>
      </trkpt>
      <trkpt lat="49.34045" lon="-0.62088">
        <ele>9.9</ele>
        <time>2016-05-28T14:25:08.000Z</time>
      </trkpt>
      <trkpt lat="49.34048" lon="-0.62102">
        <ele>10.1</ele>
        <time>2016-05-28T14:27:13.000Z</time>
      </trkpt>
      <trkpt lat="49.34044" lon="-0.6209">
        <ele>10.4</ele>
        <time>2016-05-28T14:27:55.000Z</time>
      </trkpt>
      <trkpt lat="49.34051" lon="-0.62098">
        <ele>10.4</ele>
        <time>2016-05-28T14:32:35.000Z</time>
      </trkpt>
      <trkpt lat="49.34045" lon="-0.62087">
        <ele>10</ele>
        <time>2016-05-28T14:33:39.000Z</time>
      </trkpt>
      <trkpt lat="49.34044" lon="-0.62073">
        <ele>10</ele>
        <time>2016-05-28T14:33:50.000Z</time>
      </trkpt>
      <trkpt lat="49.34044" lon="-0.62059">
        <ele>9.9</ele>
        <time>2016-05-28T14:33:59.000Z</time>
      </trkpt>
      <trkpt lat="49.34044" lon="-0.62044">
        <ele>9.8</ele>
        <time>2016-05-28T14:34:08.000Z</time>
      </trkpt>
      <trkpt lat="49.34044" lon="-0.6203">
        <ele>9.7</ele>
        <time>2016-05-28T14:34:17.000Z</time>
      </trkpt>
      <trkpt lat="49.34044" lon="-0.62015">
        <ele>9.9</ele>
        <time>2016-05-28T14:34:26.000Z</time>
      </trkpt>
      <trkpt lat="49.34042" lon="-0.62001">
        <ele>10.2</ele>
        <time>2016-05-28T14:34:40.000Z</time>
      </trkpt>
      <trkpt lat="49.34033" lon="-0.61999">
        <ele>10</ele>
        <time>2016-05-28T14:34:52.000Z</time>
      </trkpt>
      <trkpt lat="49.34023" lon="-0.62002">
        <ele>10.6</ele>
        <time>2016-05-28T14:35:01.000Z</time>
      </trkpt>
      <trkpt lat="49.34015" lon="-0.61996">
        <ele>11.3</ele>
        <time>2016-05-28T14:35:16.000Z</time>
      </trkpt>
      <trkpt lat="49.34012" lon="-0.61982">
        <ele>12.2</ele>
        <time>2016-05-28T14:35:26.000Z</time>
      </trkpt>
      <trkpt lat="49.34011" lon="-0.61967">
        <ele>13.4</ele>
        <time>2016-05-28T14:35:34.000Z</time>
      </trkpt>
      <trkpt lat="49.34009" lon="-0.61953">
        <ele>14.3</ele>
        <time>2016-05-28T14:35:42.000Z</time>
      </trkpt>
      <trkpt lat="49.34007" lon="-0.61939">
        <ele>14.9</ele>
        <time>2016-05-28T14:35:50.000Z</time>
      </trkpt>
      <trkpt lat="49.34006" lon="-0.61924">
        <ele>16</ele>
        <time>2016-05-28T14:35:59.000Z</time>
      </trkpt>
      <trkpt lat="49.34007" lon="-0.61909">
        <ele>17.3</ele>
        <time>2016-05-28T14:36:08.000Z</time>
      </trkpt>
      <trkpt lat="49.34007" lon="-0.61895">
        <ele>18.8</ele>
        <time>2016-05-28T14:36:17.000Z</time>
      </trkpt>
      <trkpt lat="49.34007" lon="-0.61881">
        <ele>20.1</ele>
        <time>2016-05-28T14:36:27.000Z</time>
      </trkpt>
      <trkpt lat="49.34008" lon="-0.61866">
        <ele>21.7</ele>
        <time>2016-05-28T14:36:38.000Z</time>
      </trkpt>
      <trkpt lat="49.34008" lon="-0.61852">
        <ele>23.4</ele>
        <time>2016-05-28T14:36:48.000Z</time>
      </trkpt>
      <trkpt lat="49.33999" lon="-0.61853">
        <ele>26.9</ele>
        <time>2016-05-28T14:37:13.000Z</time>
      </trkpt>
      <trkpt lat="49.34003" lon="-0.61866">
        <ele>28.5</ele>
        <time>2016-05-28T14:37:27.000Z</time>
      </trkpt>
      <trkpt lat="49.33994" lon="-0.6186">
        <ele>29.8</ele>
        <time>2016-05-28T14:38:16.000Z</time>
      </trkpt>
      <trkpt lat="49.33985" lon="-0.6186">
        <ele>30.1</ele>
        <time>2016-05-28T14:38:49.000Z</time>
      </trkpt>
      <trkpt lat="49.33975" lon="-0.61859">
        <ele>30.1</ele>
        <time>2016-05-28T14:39:01.000Z</time>
      </trkpt>
      <trkpt lat="49.33966" lon="-0.61865">
        <ele>30.3</ele>
        <time>2016-05-28T14:39:11.000Z</time>
      </trkpt>
      <trkpt lat="49.33958" lon="-0.6187">
        <ele>30.6</ele>
        <time>2016-05-28T14:39:20.000Z</time>
      </trkpt>
      <trkpt lat="49.3395" lon="-0.61877">
        <ele>30.9</ele>
        <time>2016-05-28T14:39:28.000Z</time>
      </trkpt>
      <trkpt lat="49.3394" lon="-0.61877">
        <ele>31.1</ele>
        <time>2016-05-28T14:39:38.000Z</time>
      </trkpt>
      <trkpt lat="49.33931" lon="-0.61879">
        <ele>32</ele>
        <time>2016-05-28T14:39:49.000Z</time>
      </trkpt>
      <trkpt lat="49.33922" lon="-0.61882">
        <ele>33</ele>
        <time>2016-05-28T14:39:59.000Z</time>
      </trkpt>
      <trkpt lat="49.33914" lon="-0.61873">
        <ele>34.8</ele>
        <time>2016-05-28T14:40:10.000Z</time>
      </trkpt>
      <trkpt lat="49.33917" lon="-0.61859">
        <ele>36.4</ele>
        <time>2016-05-28T14:40:21.000Z</time>
      </trkpt>
      <trkpt lat="49.33919" lon="-0.61846">
        <ele>37.7</ele>
        <time>2016-05-28T14:40:30.000Z</time>
      </trkpt>
      <trkpt lat="49.33919" lon="-0.61831">
        <ele>39.4</ele>
        <time>2016-05-28T14:40:41.000Z</time>
      </trkpt>
      <trkpt lat="49.33917" lon="-0.61817">
        <ele>40.8</ele>
        <time>2016-05-28T14:40:51.000Z</time>
      </trkpt>
      <trkpt lat="49.33913" lon="-0.61804">
        <ele>42.3</ele>
        <time>2016-05-28T14:41:02.000Z</time>
      </trkpt>
      <trkpt lat="49.33909" lon="-0.61791">
        <ele>44.3</ele>
        <time>2016-05-28T14:41:13.000Z</time>
      </trkpt>
      <trkpt lat="49.33907" lon="-0.61778">
        <ele>46.5</ele>
        <time>2016-05-28T14:41:25.000Z</time>
      </trkpt>
      <trkpt lat="49.33906" lon="-0.61764">
        <ele>47.9</ele>
        <time>2016-05-28T14:41:37.000Z</time>
      </trkpt>
      <trkpt lat="49.33906" lon="-0.61749">
        <ele>49.4</ele>
        <time>2016-05-28T14:41:47.000Z</time>
      </trkpt>
      <trkpt lat="49.33906" lon="-0.61735">
        <ele>50.8</ele>
        <time>2016-05-28T14:41:56.000Z</time>
      </trkpt>
      <trkpt lat="49.33907" lon="-0.61721">
        <ele>51.7</ele>
        <time>2016-05-28T14:42:06.000Z</time>
      </trkpt>
      <trkpt lat="49.33912" lon="-0.61708">
        <ele>52.5</ele>
        <time>2016-05-28T14:42:16.000Z</time>
      </trkpt>
      <trkpt lat="49.33918" lon="-0.61696">
        <ele>53.1</ele>
        <time>2016-05-28T14:42:26.000Z</time>
      </trkpt>
      <trkpt lat="49.33924" lon="-0.61685">
        <ele>53.3</ele>
        <time>2016-05-28T14:42:35.000Z</time>
      </trkpt>
      <trkpt lat="49.33929" lon="-0.61673">
        <ele>53.5</ele>
        <time>2016-05-28T14:42:44.000Z</time>
      </trkpt>
      <trkpt lat="49.33933" lon="-0.6166">
        <ele>53.8</ele>
        <time>2016-05-28T14:42:54.000Z</time>
      </trkpt>
      <trkpt lat="49.33936" lon="-0.61646">
        <ele>53.8</ele>
        <time>2016-05-28T14:43:05.000Z</time>
      </trkpt>
      <trkpt lat="49.33939" lon="-0.61631">
        <ele>54.3</ele>
        <time>2016-05-28T14:43:24.000Z</time>
      </trkpt>
      <trkpt lat="49.33941" lon="-0.61617">
        <ele>54.5</ele>
        <time>2016-05-28T14:43:33.000Z</time>
      </trkpt>
      <trkpt lat="49.33943" lon="-0.61603">
        <ele>55</ele>
        <time>2016-05-28T14:45:26.000Z</time>
      </trkpt>
      <trkpt lat="49.33943" lon="-0.61588">
        <ele>54.9</ele>
        <time>2016-05-28T14:45:35.000Z</time>
      </trkpt>
      <trkpt lat="49.33942" lon="-0.61573">
        <ele>54.8</ele>
        <time>2016-05-28T14:45:43.000Z</time>
      </trkpt>
      <trkpt lat="49.33942" lon="-0.6156">
        <ele>54.8</ele>
        <time>2016-05-28T14:45:51.000Z</time>
      </trkpt>
      <trkpt lat="49.33942" lon="-0.61544">
        <ele>54.8</ele>
        <time>2016-05-28T14:46:01.000Z</time>
      </trkpt>
      <trkpt lat="49.33941" lon="-0.61529">
        <ele>54.8</ele>
        <time>2016-05-28T14:46:11.000Z</time>
      </trkpt>
      <trkpt lat="49.33939" lon="-0.61515">
        <ele>54.9</ele>
        <time>2016-05-28T14:46:21.000Z</time>
      </trkpt>
      <trkpt lat="49.33937" lon="-0.61501">
        <ele>55</ele>
        <time>2016-05-28T14:46:33.000Z</time>
      </trkpt>
      <trkpt lat="49.33934" lon="-0.61488">
        <ele>54.8</ele>
        <time>2016-05-28T14:46:41.000Z</time>
      </trkpt>
      <trkpt lat="49.33933" lon="-0.61473">
        <ele>54.7</ele>
        <time>2016-05-28T14:46:49.000Z</time>
      </trkpt>
      <trkpt lat="49.33931" lon="-0.61458">
        <ele>54.7</ele>
        <time>2016-05-28T14:46:56.000Z</time>
      </trkpt>
      <trkpt lat="49.33929" lon="-0.61443">
        <ele>54.7</ele>
        <time>2016-05-28T14:47:03.000Z</time>
      </trkpt>
      <trkpt lat="49.33926" lon="-0.61428">
        <ele>54.7</ele>
        <time>2016-05-28T14:47:11.000Z</time>
      </trkpt>
      <trkpt lat="49.33924" lon="-0.61414">
        <ele>54.8</ele>
        <time>2016-05-28T14:47:18.000Z</time>
      </trkpt>
      <trkpt lat="49.33922" lon="-0.61401">
        <ele>55.1</ele>
        <time>2016-05-28T14:47:25.000Z</time>
      </trkpt>
      <trkpt lat="49.3392" lon="-0.61387">
        <ele>55.1</ele>
        <time>2016-05-28T14:47:32.000Z</time>
      </trkpt>
      <trkpt lat="49.33918" lon="-0.61373">
        <ele>55.1</ele>
        <time>2016-05-28T14:47:39.000Z</time>
      </trkpt>
      <trkpt lat="49.33916" lon="-0.61357">
        <ele>55.1</ele>
        <time>2016-05-28T14:47:47.000Z</time>
      </trkpt>
      <trkpt lat="49.33914" lon="-0.61343">
        <ele>54.6</ele>
        <time>2016-05-28T14:47:55.000Z</time>
      </trkpt>
      <trkpt lat="49.33912" lon="-0.61329">
        <ele>54.3</ele>
        <time>2016-05-28T14:48:03.000Z</time>
      </trkpt>
      <trkpt lat="49.33908" lon="-0.61316">
        <ele>54.1</ele>
        <time>2016-05-28T14:48:11.000Z</time>
      </trkpt>
      <trkpt lat="49.33907" lon="-0.61301">
        <ele>54.3</ele>
        <time>2016-05-28T14:48:21.000Z</time>
      </trkpt>
      <trkpt lat="49.33911" lon="-0.61289">
        <ele>54.6</ele>
        <time>2016-05-28T14:48:29.000Z</time>
      </trkpt>
      <trkpt lat="49.33913" lon="-0.61274">
        <ele>54</ele>
        <time>2016-05-28T14:48:37.000Z</time>
      </trkpt>
      <trkpt lat="49.33915" lon="-0.6126">
        <ele>53.6</ele>
        <time>2016-05-28T14:48:45.000Z</time>
      </trkpt>
      <trkpt lat="49.33916" lon="-0.61244">
        <ele>53.7</ele>
        <time>2016-05-28T14:48:53.000Z</time>
      </trkpt>
      <trkpt lat="49.33916" lon="-0.6123">
        <ele>53.6</ele>
        <time>2016-05-28T14:49:01.000Z</time>
      </trkpt>
      <trkpt lat="49.33917" lon="-0.61215">
        <ele>53.4</ele>
        <time>2016-05-28T14:49:09.000Z</time>
      </trkpt>
      <trkpt lat="49.33917" lon="-0.61201">
        <ele>53.3</ele>
        <time>2016-05-28T14:49:17.000Z</time>
      </trkpt>
      <trkpt lat="49.33916" lon="-0.61187">
        <ele>53.2</ele>
        <time>2016-05-28T14:49:25.000Z</time>
      </trkpt>
      <trkpt lat="49.33915" lon="-0.61172">
        <ele>53</ele>
        <time>2016-05-28T14:49:33.000Z</time>
      </trkpt>
      <trkpt lat="49.33914" lon="-0.61158">
        <ele>52.8</ele>
        <time>2016-05-28T14:49:41.000Z</time>
      </trkpt>
      <trkpt lat="49.33914" lon="-0.61144">
        <ele>52.6</ele>
        <time>2016-05-28T14:49:49.000Z</time>
      </trkpt>
      <trkpt lat="49.33913" lon="-0.6113">
        <ele>52.7</ele>
        <time>2016-05-28T14:49:57.000Z</time>
      </trkpt>
      <trkpt lat="49.33911" lon="-0.61115">
        <ele>52.5</ele>
        <time>2016-05-28T14:50:06.000Z</time>
      </trkpt>
      <trkpt lat="49.33908" lon="-0.61101">
        <ele>52.3</ele>
        <time>2016-05-28T14:50:14.000Z</time>
      </trkpt>
      <trkpt lat="49.33906" lon="-0.61087">
        <ele>52.3</ele>
        <time>2016-05-28T14:50:22.000Z</time>
      </trkpt>
      <trkpt lat="49.33902" lon="-0.61073">
        <ele>52.2</ele>
        <time>2016-05-28T14:50:31.000Z</time>
      </trkpt>
      <trkpt lat="49.33898" lon="-0.6106">
        <ele>52.2</ele>
        <time>2016-05-28T14:50:39.000Z</time>
      </trkpt>
      <trkpt lat="49.33894" lon="-0.61046">
        <ele>52.4</ele>
        <time>2016-05-28T14:50:48.000Z</time>
      </trkpt>
      <trkpt lat="49.33889" lon="-0.61034">
        <ele>52.3</ele>
        <time>2016-05-28T14:50:56.000Z</time>
      </trkpt>
      <trkpt lat="49.33885" lon="-0.61019">
        <ele>52.3</ele>
        <time>2016-05-28T14:51:05.000Z</time>
      </trkpt>
      <trkpt lat="49.33885" lon="-0.61004">
        <ele>52.4</ele>
        <time>2016-05-28T14:51:14.000Z</time>
      </trkpt>
      <trkpt lat="49.33886" lon="-0.6099">
        <ele>52.4</ele>
        <time>2016-05-28T14:51:22.000Z</time>
      </trkpt>
      <trkpt lat="49.33887" lon="-0.60976">
        <ele>52.4</ele>
        <time>2016-05-28T14:51:30.000Z</time>
      </trkpt>
      <trkpt lat="49.33888" lon="-0.6096">
        <ele>51.6</ele>
        <time>2016-05-28T14:51:38.000Z</time>
      </trkpt>
      <trkpt lat="49.3389" lon="-0.60946">
        <ele>51.3</ele>
        <time>2016-05-28T14:51:46.000Z</time>
      </trkpt>
      <trkpt lat="49.33892" lon="-0.60931">
        <ele>50.6</ele>
        <time>2016-05-28T14:51:55.000Z</time>
      </trkpt>
      <trkpt lat="49.33891" lon="-0.60916">
        <ele>49.7</ele>
        <time>2016-05-28T14:52:04.000Z</time>
      </trkpt>
      <trkpt lat="49.33891" lon="-0.60901">
        <ele>48.9</ele>
        <time>2016-05-28T14:52:13.000Z</time>
      </trkpt>
      <trkpt lat="49.33893" lon="-0.60887">
        <ele>48.5</ele>
        <time>2016-05-28T14:52:22.000Z</time>
      </trkpt>
      <trkpt lat="49.33894" lon="-0.60873">
        <ele>47.8</ele>
        <time>2016-05-28T14:52:30.000Z</time>
      </trkpt>
      <trkpt lat="49.33895" lon="-0.60858">
        <ele>47</ele>
        <time>2016-05-28T14:52:40.000Z</time>
      </trkpt>
      <trkpt lat="49.33903" lon="-0.60854">
        <ele>45.4</ele>
        <time>2016-05-28T14:53:54.000Z</time>
      </trkpt>
      <trkpt lat="49.33912" lon="-0.6085">
        <ele>45.8</ele>
        <time>2016-05-28T14:54:31.000Z</time>
      </trkpt>
      <trkpt lat="49.33922" lon="-0.60848">
        <ele>45.5</ele>
        <time>2016-05-28T14:54:39.000Z</time>
      </trkpt>
      <trkpt lat="49.33931" lon="-0.60846">
        <ele>44.6</ele>
        <time>2016-05-28T14:54:48.000Z</time>
      </trkpt>
      <trkpt lat="49.3394" lon="-0.60842">
        <ele>43.7</ele>
        <time>2016-05-28T14:54:56.000Z</time>
      </trkpt>
      <trkpt lat="49.3395" lon="-0.60839">
        <ele>43.2</ele>
        <time>2016-05-28T14:55:04.000Z</time>
      </trkpt>
      <trkpt lat="49.33956" lon="-0.60829">
        <ele>41.7</ele>
        <time>2016-05-28T14:55:14.000Z</time>
      </trkpt>
      <trkpt lat="49.33956" lon="-0.60814">
        <ele>40.4</ele>
        <time>2016-05-28T14:55:23.000Z</time>
      </trkpt>
      <trkpt lat="49.33955" lon="-0.60799">
        <ele>39.2</ele>
        <time>2016-05-28T14:55:33.000Z</time>
      </trkpt>
      <trkpt lat="49.33953" lon="-0.60784">
        <ele>38.5</ele>
        <time>2016-05-28T14:55:42.000Z</time>
      </trkpt>
      <trkpt lat="49.33953" lon="-0.60769">
        <ele>38</ele>
        <time>2016-05-28T14:55:51.000Z</time>
      </trkpt>
      <trkpt lat="49.33954" lon="-0.60754">
        <ele>37</ele>
        <time>2016-05-28T14:56:01.000Z</time>
      </trkpt>
      <trkpt lat="49.33954" lon="-0.60739">
        <ele>36.2</ele>
        <time>2016-05-28T14:56:10.000Z</time>
      </trkpt>
      <trkpt lat="49.33954" lon="-0.60725">
        <ele>35.1</ele>
        <time>2016-05-28T14:56:21.000Z</time>
      </trkpt>
      <trkpt lat="49.33955" lon="-0.60711">
        <ele>34.1</ele>
        <time>2016-05-28T14:56:30.000Z</time>
      </trkpt>
      <trkpt lat="49.33957" lon="-0.60697">
        <ele>33.2</ele>
        <time>2016-05-28T14:56:39.000Z</time>
      </trkpt>
      <trkpt lat="49.33957" lon="-0.60682">
        <ele>32.7</ele>
        <time>2016-05-28T14:56:48.000Z</time>
      </trkpt>
      <trkpt lat="49.33951" lon="-0.6067">
        <ele>32.3</ele>
        <time>2016-05-28T14:56:57.000Z</time>
      </trkpt>
      <trkpt lat="49.33948" lon="-0.60656">
        <ele>31.6</ele>
        <time>2016-05-28T14:57:07.000Z</time>
      </trkpt>
      <trkpt lat="49.33942" lon="-0.60645">
        <ele>30.9</ele>
        <time>2016-05-28T14:57:16.000Z</time>
      </trkpt>
      <trkpt lat="49.33937" lon="-0.60633">
        <ele>30.5</ele>
        <time>2016-05-28T14:57:25.000Z</time>
      </trkpt>
      <trkpt lat="49.33932" lon="-0.6062">
        <ele>30.2</ele>
        <time>2016-05-28T14:57:34.000Z</time>
      </trkpt>
      <trkpt lat="49.33927" lon="-0.60608">
        <ele>30</ele>
        <time>2016-05-28T14:57:43.000Z</time>
      </trkpt>
      <trkpt lat="49.33921" lon="-0.60596">
        <ele>29.3</ele>
        <time>2016-05-28T14:57:51.000Z</time>
      </trkpt>
      <trkpt lat="49.33928" lon="-0.60586">
        <ele>28.9</ele>
        <time>2016-05-28T14:58:00.000Z</time>
      </trkpt>
      <trkpt lat="49.33934" lon="-0.60574">
        <ele>28.4</ele>
        <time>2016-05-28T14:58:09.000Z</time>
      </trkpt>
      <trkpt lat="49.33936" lon="-0.6056">
        <ele>27.8</ele>
        <time>2016-05-28T14:58:17.000Z</time>
      </trkpt>
      <trkpt lat="49.33936" lon="-0.60545">
        <ele>27.2</ele>
        <time>2016-05-28T14:58:26.000Z</time>
      </trkpt>
      <trkpt lat="49.33934" lon="-0.60532">
        <ele>26.5</ele>
        <time>2016-05-28T14:58:34.000Z</time>
      </trkpt>
      <trkpt lat="49.33932" lon="-0.60518">
        <ele>26</ele>
        <time>2016-05-28T14:58:43.000Z</time>
      </trkpt>
      <trkpt lat="49.33927" lon="-0.60506">
        <ele>25.5</ele>
        <time>2016-05-28T14:58:52.000Z</time>
      </trkpt>
      <trkpt lat="49.33922" lon="-0.60492">
        <ele>25.1</ele>
        <time>2016-05-28T14:59:02.000Z</time>
      </trkpt>
      <trkpt lat="49.33919" lon="-0.60478">
        <ele>24.7</ele>
        <time>2016-05-28T14:59:12.000Z</time>
      </trkpt>
      <trkpt lat="49.33914" lon="-0.60466">
        <ele>24.4</ele>
        <time>2016-05-28T14:59:22.000Z</time>
      </trkpt>
      <trkpt lat="49.33908" lon="-0.60454">
        <ele>23.8</ele>
        <time>2016-05-28T14:59:31.000Z</time>
      </trkpt>
      <trkpt lat="49.3391" lon="-0.6044">
        <ele>23</ele>
        <time>2016-05-28T14:59:47.000Z</time>
      </trkpt>
      <trkpt lat="49.33919" lon="-0.60437">
        <ele>22.5</ele>
        <time>2016-05-28T14:59:55.000Z</time>
      </trkpt>
      <trkpt lat="49.33927" lon="-0.60432">
        <ele>22.1</ele>
        <time>2016-05-28T15:00:06.000Z</time>
      </trkpt>
      <trkpt lat="49.33937" lon="-0.60429">
        <ele>21.8</ele>
        <time>2016-05-28T15:00:15.000Z</time>
      </trkpt>
      <trkpt lat="49.33946" lon="-0.60429">
        <ele>21.1</ele>
        <time>2016-05-28T15:00:26.000Z</time>
      </trkpt>
      <trkpt lat="49.33954" lon="-0.60421">
        <ele>19.8</ele>
        <time>2016-05-28T15:01:34.000Z</time>
      </trkpt>
      <trkpt lat="49.33956" lon="-0.60406">
        <ele>19.6</ele>
        <time>2016-05-28T15:01:46.000Z</time>
      </trkpt>
      <trkpt lat="49.33957" lon="-0.60392">
        <ele>19.5</ele>
        <time>2016-05-28T15:01:57.000Z</time>
      </trkpt>
      <trkpt lat="49.33956" lon="-0.60377">
        <ele>18.8</ele>
        <time>2016-05-28T15:02:07.000Z</time>
      </trkpt>
      <trkpt lat="49.33956" lon="-0.60363">
        <ele>18.1</ele>
        <time>2016-05-28T15:02:16.000Z</time>
      </trkpt>
      <trkpt lat="49.33956" lon="-0.60347">
        <ele>17.6</ele>
        <time>2016-05-28T15:02:26.000Z</time>
      </trkpt>
      <trkpt lat="49.33957" lon="-0.60333">
        <ele>17.4</ele>
        <time>2016-05-28T15:02:35.000Z</time>
      </trkpt>
      <trkpt lat="49.33956" lon="-0.60319">
        <ele>17.1</ele>
        <time>2016-05-28T15:02:43.000Z</time>
      </trkpt>
      <trkpt lat="49.33956" lon="-0.60304">
        <ele>16.7</ele>
        <time>2016-05-28T15:02:52.000Z</time>
      </trkpt>
      <trkpt lat="49.33957" lon="-0.6029">
        <ele>16.4</ele>
        <time>2016-05-28T15:03:00.000Z</time>
      </trkpt>
      <trkpt lat="49.33958" lon="-0.60276">
        <ele>16.1</ele>
        <time>2016-05-28T15:03:07.000Z</time>
      </trkpt>
      <trkpt lat="49.3396" lon="-0.60262">
        <ele>15.6</ele>
        <time>2016-05-28T15:03:15.000Z</time>
      </trkpt>
      <trkpt lat="49.3396" lon="-0.60247">
        <ele>14.8</ele>
        <time>2016-05-28T15:03:24.000Z</time>
      </trkpt>
      <trkpt lat="49.33961" lon="-0.60232">
        <ele>14.2</ele>
        <time>2016-05-28T15:03:32.000Z</time>
      </trkpt>
      <trkpt lat="49.33961" lon="-0.60217">
        <ele>13.9</ele>
        <time>2016-05-28T15:03:41.000Z</time>
      </trkpt>
      <trkpt lat="49.33963" lon="-0.60203">
        <ele>13.8</ele>
        <time>2016-05-28T15:03:49.000Z</time>
      </trkpt>
      <trkpt lat="49.33965" lon="-0.60189">
        <ele>13.4</ele>
        <time>2016-05-28T15:03:57.000Z</time>
      </trkpt>
      <trkpt lat="49.33967" lon="-0.60174">
        <ele>12.8</ele>
        <time>2016-05-28T15:04:06.000Z</time>
      </trkpt>
      <trkpt lat="49.33969" lon="-0.60159">
        <ele>12</ele>
        <time>2016-05-28T15:04:15.000Z</time>
      </trkpt>
      <trkpt lat="49.33971" lon="-0.60144">
        <ele>11.6</ele>
        <time>2016-05-28T15:04:25.000Z</time>
      </trkpt>
      <trkpt lat="49.33973" lon="-0.60129">
        <ele>11.4</ele>
        <time>2016-05-28T15:04:34.000Z</time>
      </trkpt>
      <trkpt lat="49.33976" lon="-0.60116">
        <ele>11.3</ele>
        <time>2016-05-28T15:04:42.000Z</time>
      </trkpt>
      <trkpt lat="49.33976" lon="-0.60102">
        <ele>11.2</ele>
        <time>2016-05-28T15:04:50.000Z</time>
      </trkpt>
      <trkpt lat="49.33976" lon="-0.60087">
        <ele>11.2</ele>
        <time>2016-05-28T15:04:59.000Z</time>
      </trkpt>
      <trkpt lat="49.33976" lon="-0.60073">
        <ele>11.3</ele>
        <time>2016-05-28T15:05:07.000Z</time>
      </trkpt>
      <trkpt lat="49.33978" lon="-0.60059">
        <ele>11.5</ele>
        <time>2016-05-28T15:05:16.000Z</time>
      </trkpt>
      <trkpt lat="49.33979" lon="-0.60044">
        <ele>11.7</ele>
        <time>2016-05-28T15:05:26.000Z</time>
      </trkpt>
      <trkpt lat="49.33978" lon="-0.6003">
        <ele>11.5</ele>
        <time>2016-05-28T15:05:36.000Z</time>
      </trkpt>
      <trkpt lat="49.3398" lon="-0.60017">
        <ele>11.3</ele>
        <time>2016-05-28T15:05:45.000Z</time>
      </trkpt>
      <trkpt lat="49.33985" lon="-0.60004">
        <ele>11.2</ele>
        <time>2016-05-28T15:05:53.000Z</time>
      </trkpt>
      <trkpt lat="49.33989" lon="-0.59991">
        <ele>11.1</ele>
        <time>2016-05-28T15:06:01.000Z</time>
      </trkpt>
      <trkpt lat="49.33994" lon="-0.59977">
        <ele>10.9</ele>
        <time>2016-05-28T15:06:11.000Z</time>
      </trkpt>
      <trkpt lat="49.33998" lon="-0.59963">
        <ele>10.2</ele>
        <time>2016-05-28T15:06:20.000Z</time>
      </trkpt>
      <trkpt lat="49.33998" lon="-0.59949">
        <ele>9.8</ele>
        <time>2016-05-28T15:06:28.000Z</time>
      </trkpt>
      <trkpt lat="49.33998" lon="-0.59935">
        <ele>9.8</ele>
        <time>2016-05-28T15:06:36.000Z</time>
      </trkpt>
      <trkpt lat="49.34" lon="-0.5992">
        <ele>9.4</ele>
        <time>2016-05-28T15:06:45.000Z</time>
      </trkpt>
      <trkpt lat="49.34001" lon="-0.59906">
        <ele>9.3</ele>
        <time>2016-05-28T15:06:54.000Z</time>
      </trkpt>
      <trkpt lat="49.34003" lon="-0.59892">
        <ele>9.4</ele>
        <time>2016-05-28T15:07:02.000Z</time>
      </trkpt>
      <trkpt lat="49.34005" lon="-0.59877">
        <ele>9.5</ele>
        <time>2016-05-28T15:07:11.000Z</time>
      </trkpt>
      <trkpt lat="49.34007" lon="-0.59862">
        <ele>9.3</ele>
        <time>2016-05-28T15:07:20.000Z</time>
      </trkpt>
      <trkpt lat="49.34008" lon="-0.59848">
        <ele>9.5</ele>
        <time>2016-05-28T15:07:28.000Z</time>
      </trkpt>
      <trkpt lat="49.34009" lon="-0.59834">
        <ele>9.6</ele>
        <time>2016-05-28T15:07:36.000Z</time>
      </trkpt>
      <trkpt lat="49.34011" lon="-0.5982">
        <ele>9.7</ele>
        <time>2016-05-28T15:07:44.000Z</time>
      </trkpt>
      <trkpt lat="49.34013" lon="-0.59805">
        <ele>9.7</ele>
        <time>2016-05-28T15:07:53.000Z</time>
      </trkpt>
      <trkpt lat="49.34016" lon="-0.59792">
        <ele>9.6</ele>
        <time>2016-05-28T15:08:02.000Z</time>
      </trkpt>
      <trkpt lat="49.34018" lon="-0.59777">
        <ele>9.6</ele>
        <time>2016-05-28T15:08:12.000Z</time>
      </trkpt>
      <trkpt lat="49.34021" lon="-0.59762">
        <ele>9.4</ele>
        <time>2016-05-28T15:08:22.000Z</time>
      </trkpt>
      <trkpt lat="49.34022" lon="-0.59748">
        <ele>9.2</ele>
        <time>2016-05-28T15:08:31.000Z</time>
      </trkpt>
      <trkpt lat="49.34024" lon="-0.59734">
        <ele>9.3</ele>
        <time>2016-05-28T15:08:39.000Z</time>
      </trkpt>
      <trkpt lat="49.34026" lon="-0.59719">
        <ele>9.3</ele>
        <time>2016-05-28T15:08:48.000Z</time>
      </trkpt>
      <trkpt lat="49.34028" lon="-0.59705">
        <ele>9.3</ele>
        <time>2016-05-28T15:08:56.000Z</time>
      </trkpt>
      <trkpt lat="49.34028" lon="-0.59691">
        <ele>9.4</ele>
        <time>2016-05-28T15:09:04.000Z</time>
      </trkpt>
      <trkpt lat="49.34029" lon="-0.59676">
        <ele>9.6</ele>
        <time>2016-05-28T15:09:12.000Z</time>
      </trkpt>
      <trkpt lat="49.34031" lon="-0.59663">
        <ele>9.7</ele>
        <time>2016-05-28T15:09:19.000Z</time>
      </trkpt>
      <trkpt lat="49.34032" lon="-0.59648">
        <ele>9.7</ele>
        <time>2016-05-28T15:09:28.000Z</time>
      </trkpt>
      <trkpt lat="49.34033" lon="-0.59633">
        <ele>9.9</ele>
        <time>2016-05-28T15:09:37.000Z</time>
      </trkpt>
      <trkpt lat="49.34034" lon="-0.59617">
        <ele>9.5</ele>
        <time>2016-05-28T15:09:46.000Z</time>
      </trkpt>
      <trkpt lat="49.34037" lon="-0.59603">
        <ele>9.4</ele>
        <time>2016-05-28T15:09:55.000Z</time>
      </trkpt>
      <trkpt lat="49.34039" lon="-0.59589">
        <ele>9.3</ele>
        <time>2016-05-28T15:10:04.000Z</time>
      </trkpt>
      <trkpt lat="49.34041" lon="-0.59575">
        <ele>9.2</ele>
        <time>2016-05-28T15:10:13.000Z</time>
      </trkpt>
      <trkpt lat="49.34043" lon="-0.5956">
        <ele>9.2</ele>
        <time>2016-05-28T15:10:22.000Z</time>
      </trkpt>
      <trkpt lat="49.34041" lon="-0.59546">
        <ele>9.5</ele>
        <time>2016-05-28T15:10:46.000Z</time>
      </trkpt>
      <trkpt lat="49.34044" lon="-0.59532">
        <ele>11.1</ele>
        <time>2016-05-28T15:11:26.000Z</time>
      </trkpt>
      <trkpt lat="49.34046" lon="-0.59518">
        <ele>11.2</ele>
        <time>2016-05-28T15:11:36.000Z</time>
      </trkpt>
      <trkpt lat="49.34045" lon="-0.59503">
        <ele>11.3</ele>
        <time>2016-05-28T15:11:46.000Z</time>
      </trkpt>
      <trkpt lat="49.34044" lon="-0.59489">
        <ele>11</ele>
        <time>2016-05-28T15:11:55.000Z</time>
      </trkpt>
      <trkpt lat="49.34045" lon="-0.59475">
        <ele>10.9</ele>
        <time>2016-05-28T15:12:03.000Z</time>
      </trkpt>
      <trkpt lat="49.34046" lon="-0.59461">
        <ele>11.1</ele>
        <time>2016-05-28T15:12:11.000Z</time>
      </trkpt>
      <trkpt lat="49.34048" lon="-0.59446">
        <ele>11.5</ele>
        <time>2016-05-28T15:12:20.000Z</time>
      </trkpt>
      <trkpt lat="49.34049" lon="-0.59432">
        <ele>11.7</ele>
        <time>2016-05-28T15:12:29.000Z</time>
      </trkpt>
      <trkpt lat="49.34051" lon="-0.59418">
        <ele>11.4</ele>
        <time>2016-05-28T15:12:37.000Z</time>
      </trkpt>
      <trkpt lat="49.34053" lon="-0.59405">
        <ele>11.2</ele>
        <time>2016-05-28T15:12:45.000Z</time>
      </trkpt>
      <trkpt lat="49.34055" lon="-0.59391">
        <ele>11.4</ele>
        <time>2016-05-28T15:12:53.000Z</time>
      </trkpt>
      <trkpt lat="49.34057" lon="-0.59376">
        <ele>11.3</ele>
        <time>2016-05-28T15:13:01.000Z</time>
      </trkpt>
      <trkpt lat="49.34058" lon="-0.59362">
        <ele>11.1</ele>
        <time>2016-05-28T15:13:09.000Z</time>
      </trkpt>
      <trkpt lat="49.34061" lon="-0.59348">
        <ele>10.9</ele>
        <time>2016-05-28T15:13:17.000Z</time>
      </trkpt>
      <trkpt lat="49.34063" lon="-0.59334">
        <ele>11</ele>
        <time>2016-05-28T15:13:25.000Z</time>
      </trkpt>
      <trkpt lat="49.34065" lon="-0.59319">
        <ele>11.2</ele>
        <time>2016-05-28T15:13:33.000Z</time>
      </trkpt>
      <trkpt lat="49.34068" lon="-0.59305">
        <ele>11.4</ele>
        <time>2016-05-28T15:13:41.000Z</time>
      </trkpt>
      <trkpt lat="49.3407" lon="-0.59291">
        <ele>11.5</ele>
        <time>2016-05-28T15:13:49.000Z</time>
      </trkpt>
      <trkpt lat="49.34072" lon="-0.59277">
        <ele>11.6</ele>
        <time>2016-05-28T15:13:58.000Z</time>
      </trkpt>
      <trkpt lat="49.34075" lon="-0.59263">
        <ele>11.5</ele>
        <time>2016-05-28T15:14:06.000Z</time>
      </trkpt>
      <trkpt lat="49.34077" lon="-0.59249">
        <ele>11.3</ele>
        <time>2016-05-28T15:14:15.000Z</time>
      </trkpt>
      <trkpt lat="49.34079" lon="-0.59235">
        <ele>11</ele>
        <time>2016-05-28T15:14:24.000Z</time>
      </trkpt>
      <trkpt lat="49.34081" lon="-0.59221">
        <ele>10.9</ele>
        <time>2016-05-28T15:14:33.000Z</time>
      </trkpt>
      <trkpt lat="49.34083" lon="-0.59206">
        <ele>11</ele>
        <time>2016-05-28T15:14:42.000Z</time>
      </trkpt>
      <trkpt lat="49.34085" lon="-0.59191">
        <ele>11</ele>
        <time>2016-05-28T15:14:51.000Z</time>
      </trkpt>
      <trkpt lat="49.34087" lon="-0.59176">
        <ele>11.2</ele>
        <time>2016-05-28T15:14:59.000Z</time>
      </trkpt>
      <trkpt lat="49.34089" lon="-0.59163">
        <ele>11.2</ele>
        <time>2016-05-28T15:15:07.000Z</time>
      </trkpt>
      <trkpt lat="49.34092" lon="-0.59149">
        <ele>10.9</ele>
        <time>2016-05-28T15:15:15.000Z</time>
      </trkpt>
      <trkpt lat="49.34093" lon="-0.59135">
        <ele>10.9</ele>
        <time>2016-05-28T15:15:24.000Z</time>
      </trkpt>
      <trkpt lat="49.34096" lon="-0.59121">
        <ele>10.7</ele>
        <time>2016-05-28T15:15:32.000Z</time>
      </trkpt>
      <trkpt lat="49.34099" lon="-0.59107">
        <ele>10.5</ele>
        <time>2016-05-28T15:15:40.000Z</time>
      </trkpt>
      <trkpt lat="49.34102" lon="-0.59093">
        <ele>10.4</ele>
        <time>2016-05-28T15:15:49.000Z</time>
      </trkpt>
      <trkpt lat="49.34104" lon="-0.59079">
        <ele>10.3</ele>
        <time>2016-05-28T15:15:58.000Z</time>
      </trkpt>
      <trkpt lat="49.34106" lon="-0.59066">
        <ele>10.3</ele>
        <time>2016-05-28T15:16:06.000Z</time>
      </trkpt>
      <trkpt lat="49.34108" lon="-0.59052">
        <ele>10.3</ele>
        <time>2016-05-28T15:16:15.000Z</time>
      </trkpt>
      <trkpt lat="49.34111" lon="-0.59038">
        <ele>10.2</ele>
        <time>2016-05-28T15:16:25.000Z</time>
      </trkpt>
      <trkpt lat="49.34114" lon="-0.59023">
        <ele>10.2</ele>
        <time>2016-05-28T15:16:35.000Z</time>
      </trkpt>
      <trkpt lat="49.34114" lon="-0.59008">
        <ele>10.2</ele>
        <time>2016-05-28T15:16:49.000Z</time>
      </trkpt>
      <trkpt lat="49.34117" lon="-0.58995">
        <ele>10.3</ele>
        <time>2016-05-28T15:16:58.000Z</time>
      </trkpt>
      <trkpt lat="49.3412" lon="-0.58981">
        <ele>10.1</ele>
        <time>2016-05-28T15:17:07.000Z</time>
      </trkpt>
      <trkpt lat="49.34124" lon="-0.58967">
        <ele>10</ele>
        <time>2016-05-28T15:17:16.000Z</time>
      </trkpt>
      <trkpt lat="49.34126" lon="-0.58953">
        <ele>9.9</ele>
        <time>2016-05-28T15:17:26.000Z</time>
      </trkpt>
      <trkpt lat="49.34119" lon="-0.58944">
        <ele>9.9</ele>
        <time>2016-05-28T15:17:46.000Z</time>
      </trkpt>
      <trkpt lat="49.34111" lon="-0.58952">
        <ele>10</ele>
        <time>2016-05-28T15:17:56.000Z</time>
      </trkpt>
      <trkpt lat="49.34109" lon="-0.58966">
        <ele>10</ele>
        <time>2016-05-28T15:18:06.000Z</time>
      </trkpt>
      <trkpt lat="49.34109" lon="-0.58968">
        <ele>10</ele>
        <time>2016-05-28T15:18:08.000Z</time>
      </trkpt>
    </trkseg>
  </trk>
</gpx>